<?xml version="1.0" encoding="UTF-8" standalone="no" ?>
<gpx xmlns="http://www.topografix.com/GPX/1/1" xmlns:xsi="http://www.w3.org/2001/XMLSchema-instance" xsi:schemaLocation="http://www.topografix.com/GPX/1/1 http://www.topografix.com/GPX/1/1/gpx.xsd" version="1.1" creator="VisuGPX - https://www.visugpx.com">
  <metadata>
    <name>refuge coll del torn</name>
  </metadata>
  <wpt lat="42.58395" lon="2.06776">
    <ele>1835.1</ele>
    <name><![CDATA[Parking]]></name>
  </wpt>
  <wpt lat="42.58701" lon="2.05306">
    <ele>1774.2</ele>
    <name><![CDATA[Route]]></name>
  </wpt>
  <wpt lat="42.59159" lon="2.06028">
    <ele>1827.3</ele>
    <name><![CDATA[Bifurcation au panneau]]></name>
  </wpt>
  <wpt lat="42.59337" lon="2.05932">
    <ele>1896.3</ele>
    <name><![CDATA[Chemin de gauche]]></name>
  </wpt>
  <wpt lat="42.59408" lon="2.04965">
    <ele>1959.8</ele>
    <name><![CDATA[Chemin principal]]></name>
  </wpt>
  <wpt lat="42.59813" lon="2.03659">
    <ele>2210.1</ele>
    <name><![CDATA[Cabane]]></name>
  </wpt>
  <wpt lat="42.59987" lon="2.03327">
    <ele>2319.7</ele>
    <name><![CDATA[Fin de balisage]]></name>
  </wpt>
  <wpt lat="42.60464" lon="2.03085">
    <ele>2462.3</ele>
    <name><![CDATA[Pic Del Pam]]></name>
  </wpt>
  <wpt lat="42.60053" lon="2.02545">
    <ele>2424.5</ele>
    <name><![CDATA[Serra Dels Alarbs]]></name>
  </wpt>
  <wpt lat="42.59497" lon="2.01049">
    <ele>2196.8</ele>
    <name><![CDATA[GR]]></name>
  </wpt>
  <wpt lat="42.59027" lon="2.0121">
    <ele>2120.8</ele>
    <name><![CDATA[Obliquer à gauche]]></name>
  </wpt>
  <wpt lat="42.58807" lon="2.02018">
    <ele>2079</ele>
    <name><![CDATA[Lac Balmette]]></name>
  </wpt>
  <wpt lat="42.58919" lon="2.03815">
    <ele>1927.5</ele>
    <name><![CDATA[Changement de sentier]]></name>
  </wpt>
  <wpt lat="42.58389" lon="2.0679">
    <ele>1835.9</ele>
    <name><![CDATA[Parking]]></name>
  </wpt>
  <wpt lat="42.58526" lon="2.11876">
    <ele>1499.5</ele>
    <name><![CDATA[Parking Route de la Quillane]]></name>
  </wpt>
  <wpt lat="42.57512" lon="2.11298">
    <ele>1541.8</ele>
    <name><![CDATA[Barrage du Lac de Matemale]]></name>
  </wpt>
  <wpt lat="42.57395" lon="2.11302">
    <ele>1552.7</ele>
    <name><![CDATA[Abandon Route D118/Piste DFCI CA12]]></name>
  </wpt>
  <wpt lat="42.57863" lon="2.12093">
    <ele>1629</ele>
    <name><![CDATA[Intersection de pistes]]></name>
  </wpt>
  <wpt lat="42.57476" lon="2.11861">
    <ele>1673.8</ele>
    <name><![CDATA[Fin de piste]]></name>
  </wpt>
  <wpt lat="42.57491" lon="2.13175">
    <ele>1874.8</ele>
    <name><![CDATA[Refuge du Coll del Torn]]></name>
  </wpt>
  <wpt lat="42.59959" lon="2.13728">
    <ele>1758</ele>
    <name><![CDATA[Abandon Piste]]></name>
  </wpt>
  <wpt lat="42.59984" lon="2.13766">
    <ele>1752.7</ele>
    <name><![CDATA[Sentier balisé à gauche]]></name>
  </wpt>
  <wpt lat="42.6026" lon="2.13798">
    <ele>1721.2</ele>
    <name><![CDATA[Coll de Creu]]></name>
  </wpt>
  <wpt lat="42.60758" lon="2.13457">
    <ele>1625</ele>
    <name><![CDATA[°°GRP®°°Capcir]]></name>
  </wpt>
  <wpt lat="42.60381" lon="2.13013">
    <ele>1501.4</ele>
    <name><![CDATA[Intersection Tour de Creu]]></name>
  </wpt>
  <wpt lat="42.59275" lon="2.12262">
    <ele>1480.2</ele>
    <name><![CDATA[Route à gauche]]></name>
  </wpt>
  <wpt lat="42.58522" lon="2.11875">
    <ele>1499.5</ele>
    <name><![CDATA[Parking Route de la Quillane]]></name>
  </wpt>
  <trk>
    <name><![CDATA[Puig del Pam en boucle par la Balmette]]></name>
    <trkseg>
      <trkpt lat="42.58395" lon="2.06776">
        <ele>1834</ele>
        <time>2016-09-04T11:25:56 02:00</time>
      </trkpt>
      <trkpt lat="42.58383" lon="2.06794">
        <ele>1836</ele>
        <time>2016-09-04T11:25:59 02:00</time>
      </trkpt>
      <trkpt lat="42.58395" lon="2.06775">
        <ele>1834</ele>
        <time>2016-09-04T11:29:36 02:00</time>
      </trkpt>
      <trkpt lat="42.58393" lon="2.06743">
        <ele>1834</ele>
        <time>2016-09-04T11:29:58 02:00</time>
      </trkpt>
      <trkpt lat="42.58386" lon="2.06702">
        <ele>1833</ele>
        <time>2016-09-04T11:30:28 02:00</time>
      </trkpt>
      <trkpt lat="42.58383" lon="2.06679">
        <ele>1833</ele>
        <time>2016-09-04T11:30:46 02:00</time>
      </trkpt>
      <trkpt lat="42.58384" lon="2.06661">
        <ele>1832</ele>
        <time>2016-09-04T11:31:01 02:00</time>
      </trkpt>
      <trkpt lat="42.58387" lon="2.06628">
        <ele>1829</ele>
        <time>2016-09-04T11:31:23 02:00</time>
      </trkpt>
      <trkpt lat="42.58387" lon="2.06616">
        <ele>1829</ele>
        <time>2016-09-04T11:31:32 02:00</time>
      </trkpt>
      <trkpt lat="42.58369" lon="2.06536">
        <ele>1829</ele>
        <time>2016-09-04T11:32:25 02:00</time>
      </trkpt>
      <trkpt lat="42.58365" lon="2.06499">
        <ele>1828</ele>
        <time>2016-09-04T11:32:49 02:00</time>
      </trkpt>
      <trkpt lat="42.58369" lon="2.06474">
        <ele>1824</ele>
        <time>2016-09-04T11:33:06 02:00</time>
      </trkpt>
      <trkpt lat="42.58366" lon="2.06448">
        <ele>1824</ele>
        <time>2016-09-04T11:33:27 02:00</time>
      </trkpt>
      <trkpt lat="42.58361" lon="2.06412">
        <ele>1822</ele>
        <time>2016-09-04T11:33:50 02:00</time>
      </trkpt>
      <trkpt lat="42.58359" lon="2.06384">
        <ele>1820</ele>
        <time>2016-09-04T11:34:13 02:00</time>
      </trkpt>
      <trkpt lat="42.58359" lon="2.06362">
        <ele>1817</ele>
        <time>2016-09-04T11:34:25 02:00</time>
      </trkpt>
      <trkpt lat="42.58361" lon="2.06312">
        <ele>1811</ele>
        <time>2016-09-04T11:34:55 02:00</time>
      </trkpt>
      <trkpt lat="42.58368" lon="2.06278">
        <ele>1806</ele>
        <time>2016-09-04T11:35:21 02:00</time>
      </trkpt>
      <trkpt lat="42.5837" lon="2.06259">
        <ele>1803</ele>
        <time>2016-09-04T11:35:37 02:00</time>
      </trkpt>
      <trkpt lat="42.58359" lon="2.0623">
        <ele>1803</ele>
        <time>2016-09-04T11:35:59 02:00</time>
      </trkpt>
      <trkpt lat="42.58356" lon="2.06217">
        <ele>1803</ele>
        <time>2016-09-04T11:36:06 02:00</time>
      </trkpt>
      <trkpt lat="42.58348" lon="2.06193">
        <ele>1803</ele>
        <time>2016-09-04T11:36:21 02:00</time>
      </trkpt>
      <trkpt lat="42.58343" lon="2.06179">
        <ele>1803</ele>
        <time>2016-09-04T11:36:31 02:00</time>
      </trkpt>
      <trkpt lat="42.58342" lon="2.06157">
        <ele>1801</ele>
        <time>2016-09-04T11:36:55 02:00</time>
      </trkpt>
      <trkpt lat="42.58349" lon="2.06131">
        <ele>1797</ele>
        <time>2016-09-04T11:37:15 02:00</time>
      </trkpt>
      <trkpt lat="42.58357" lon="2.06106">
        <ele>1793</ele>
        <time>2016-09-04T11:37:28 02:00</time>
      </trkpt>
      <trkpt lat="42.58351" lon="2.06088">
        <ele>1793</ele>
        <time>2016-09-04T11:37:49 02:00</time>
      </trkpt>
      <trkpt lat="42.58356" lon="2.06066">
        <ele>1791</ele>
        <time>2016-09-04T11:37:51 02:00</time>
      </trkpt>
      <trkpt lat="42.58362" lon="2.06044">
        <ele>1789</ele>
        <time>2016-09-04T11:38:10 02:00</time>
      </trkpt>
      <trkpt lat="42.58356" lon="2.06019">
        <ele>1791</ele>
        <time>2016-09-04T11:38:30 02:00</time>
      </trkpt>
      <trkpt lat="42.58356" lon="2.05973">
        <ele>1791</ele>
        <time>2016-09-04T11:38:58 02:00</time>
      </trkpt>
      <trkpt lat="42.58359" lon="2.05941">
        <ele>1790</ele>
        <time>2016-09-04T11:39:26 02:00</time>
      </trkpt>
      <trkpt lat="42.58363" lon="2.05897">
        <ele>1790</ele>
        <time>2016-09-04T11:39:56 02:00</time>
      </trkpt>
      <trkpt lat="42.58365" lon="2.05872">
        <ele>1790</ele>
        <time>2016-09-04T11:40:16 02:00</time>
      </trkpt>
      <trkpt lat="42.58359" lon="2.05834">
        <ele>1795</ele>
        <time>2016-09-04T11:40:45 02:00</time>
      </trkpt>
      <trkpt lat="42.58358" lon="2.05795">
        <ele>1796</ele>
        <time>2016-09-04T11:41:13 02:00</time>
      </trkpt>
      <trkpt lat="42.58351" lon="2.05755">
        <ele>1801</ele>
        <time>2016-09-04T11:41:41 02:00</time>
      </trkpt>
      <trkpt lat="42.5836" lon="2.05734">
        <ele>1797</ele>
        <time>2016-09-04T11:42:00 02:00</time>
      </trkpt>
      <trkpt lat="42.5837" lon="2.05687">
        <ele>1795</ele>
        <time>2016-09-04T11:42:28 02:00</time>
      </trkpt>
      <trkpt lat="42.5837" lon="2.05675">
        <ele>1795</ele>
        <time>2016-09-04T11:42:33 02:00</time>
      </trkpt>
      <trkpt lat="42.58382" lon="2.05653">
        <ele>1791</ele>
        <time>2016-09-04T11:42:51 02:00</time>
      </trkpt>
      <trkpt lat="42.58382" lon="2.05627">
        <ele>1793</ele>
        <time>2016-09-04T11:43:10 02:00</time>
      </trkpt>
      <trkpt lat="42.58379" lon="2.05595">
        <ele>1795</ele>
        <time>2016-09-04T11:43:32 02:00</time>
      </trkpt>
      <trkpt lat="42.58383" lon="2.05579">
        <ele>1795</ele>
        <time>2016-09-04T11:43:42 02:00</time>
      </trkpt>
      <trkpt lat="42.58391" lon="2.05549">
        <ele>1793</ele>
        <time>2016-09-04T11:44:04 02:00</time>
      </trkpt>
      <trkpt lat="42.58398" lon="2.05523">
        <ele>1792</ele>
        <time>2016-09-04T11:44:29 02:00</time>
      </trkpt>
      <trkpt lat="42.58399" lon="2.05499">
        <ele>1792</ele>
        <time>2016-09-04T11:44:50 02:00</time>
      </trkpt>
      <trkpt lat="42.58407" lon="2.05475">
        <ele>1794</ele>
        <time>2016-09-04T11:45:06 02:00</time>
      </trkpt>
      <trkpt lat="42.58415" lon="2.05456">
        <ele>1794</ele>
        <time>2016-09-04T11:45:21 02:00</time>
      </trkpt>
      <trkpt lat="42.58426" lon="2.05432">
        <ele>1796</ele>
        <time>2016-09-04T11:45:42 02:00</time>
      </trkpt>
      <trkpt lat="42.58441" lon="2.05421">
        <ele>1797</ele>
        <time>2016-09-04T11:45:59 02:00</time>
      </trkpt>
      <trkpt lat="42.58452" lon="2.05413">
        <ele>1798</ele>
        <time>2016-09-04T11:46:16 02:00</time>
      </trkpt>
      <trkpt lat="42.58471" lon="2.054">
        <ele>1798</ele>
        <time>2016-09-04T11:46:40 02:00</time>
      </trkpt>
      <trkpt lat="42.58488" lon="2.05393">
        <ele>1798</ele>
        <time>2016-09-04T11:46:57 02:00</time>
      </trkpt>
      <trkpt lat="42.58502" lon="2.05388">
        <ele>1797</ele>
        <time>2016-09-04T11:47:20 02:00</time>
      </trkpt>
      <trkpt lat="42.58491" lon="2.05362">
        <ele>1804</ele>
        <time>2016-09-04T11:47:45 02:00</time>
      </trkpt>
      <trkpt lat="42.58493" lon="2.05335">
        <ele>1808</ele>
        <time>2016-09-04T11:48:07 02:00</time>
      </trkpt>
      <trkpt lat="42.58495" lon="2.0532">
        <ele>1810</ele>
        <time>2016-09-04T11:48:30 02:00</time>
      </trkpt>
      <trkpt lat="42.58502" lon="2.05297">
        <ele>1812</ele>
        <time>2016-09-04T11:48:56 02:00</time>
      </trkpt>
      <trkpt lat="42.58515" lon="2.05272">
        <ele>1812</ele>
        <time>2016-09-04T11:49:22 02:00</time>
      </trkpt>
      <trkpt lat="42.58524" lon="2.05261">
        <ele>1810</ele>
        <time>2016-09-04T11:49:34 02:00</time>
      </trkpt>
      <trkpt lat="42.5853" lon="2.05249">
        <ele>1810</ele>
        <time>2016-09-04T11:49:49 02:00</time>
      </trkpt>
      <trkpt lat="42.58539" lon="2.05238">
        <ele>1809</ele>
        <time>2016-09-04T11:50:08 02:00</time>
      </trkpt>
      <trkpt lat="42.58552" lon="2.0524">
        <ele>1805</ele>
        <time>2016-09-04T11:50:24 02:00</time>
      </trkpt>
      <trkpt lat="42.58562" lon="2.05239">
        <ele>1802</ele>
        <time>2016-09-04T11:50:40 02:00</time>
      </trkpt>
      <trkpt lat="42.58583" lon="2.05234">
        <ele>1797</ele>
        <time>2016-09-04T11:51:00 02:00</time>
      </trkpt>
      <trkpt lat="42.58603" lon="2.05243">
        <ele>1791</ele>
        <time>2016-09-04T11:51:19 02:00</time>
      </trkpt>
      <trkpt lat="42.58618" lon="2.05251">
        <ele>1787</ele>
        <time>2016-09-04T11:51:35 02:00</time>
      </trkpt>
      <trkpt lat="42.58627" lon="2.05261">
        <ele>1784</ele>
        <time>2016-09-04T11:51:50 02:00</time>
      </trkpt>
      <trkpt lat="42.58638" lon="2.05275">
        <ele>1781</ele>
        <time>2016-09-04T11:52:22 02:00</time>
      </trkpt>
      <trkpt lat="42.58651" lon="2.05277">
        <ele>1778</ele>
        <time>2016-09-04T11:52:46 02:00</time>
      </trkpt>
      <trkpt lat="42.5867" lon="2.0529">
        <ele>1773</ele>
        <time>2016-09-04T11:53:07 02:00</time>
      </trkpt>
      <trkpt lat="42.58679" lon="2.05299">
        <ele>1773</ele>
        <time>2016-09-04T11:53:24 02:00</time>
      </trkpt>
      <trkpt lat="42.58701" lon="2.05306">
        <ele>1774</ele>
        <time>2016-09-04T11:53:48 02:00</time>
      </trkpt>
      <trkpt lat="42.58717" lon="2.05301">
        <ele>1775</ele>
        <time>2016-09-04T11:54:01 02:00</time>
      </trkpt>
      <trkpt lat="42.58739" lon="2.05287">
        <ele>1775</ele>
        <time>2016-09-04T11:54:26 02:00</time>
      </trkpt>
      <trkpt lat="42.58753" lon="2.05274">
        <ele>1775</ele>
        <time>2016-09-04T11:54:44 02:00</time>
      </trkpt>
      <trkpt lat="42.58779" lon="2.05279">
        <ele>1778</ele>
        <time>2016-09-04T11:54:58 02:00</time>
      </trkpt>
      <trkpt lat="42.58785" lon="2.05279">
        <ele>1778</ele>
        <time>2016-09-04T11:55:03 02:00</time>
      </trkpt>
      <trkpt lat="42.58807" lon="2.05277">
        <ele>1780</ele>
        <time>2016-09-04T11:55:22 02:00</time>
      </trkpt>
      <trkpt lat="42.58811" lon="2.05251">
        <ele>1779</ele>
        <time>2016-09-04T11:55:54 02:00</time>
      </trkpt>
      <trkpt lat="42.58825" lon="2.05248">
        <ele>1780</ele>
        <time>2016-09-04T11:56:05 02:00</time>
      </trkpt>
      <trkpt lat="42.58847" lon="2.05242">
        <ele>1781</ele>
        <time>2016-09-04T11:56:14 02:00</time>
      </trkpt>
      <trkpt lat="42.58869" lon="2.05222">
        <ele>1784</ele>
        <time>2016-09-04T11:56:35 02:00</time>
      </trkpt>
      <trkpt lat="42.58895" lon="2.05216">
        <ele>1787</ele>
        <time>2016-09-04T11:56:53 02:00</time>
      </trkpt>
      <trkpt lat="42.58912" lon="2.05205">
        <ele>1790</ele>
        <time>2016-09-04T11:57:19 02:00</time>
      </trkpt>
      <trkpt lat="42.58931" lon="2.05196">
        <ele>1794</ele>
        <time>2016-09-04T11:57:41 02:00</time>
      </trkpt>
      <trkpt lat="42.58952" lon="2.05186">
        <ele>1800</ele>
        <time>2016-09-04T11:58:00 02:00</time>
      </trkpt>
      <trkpt lat="42.58983" lon="2.05177">
        <ele>1807</ele>
        <time>2016-09-04T11:58:22 02:00</time>
      </trkpt>
      <trkpt lat="42.59001" lon="2.0517">
        <ele>1812</ele>
        <time>2016-09-04T11:58:36 02:00</time>
      </trkpt>
      <trkpt lat="42.59012" lon="2.05185">
        <ele>1805</ele>
        <time>2016-09-04T11:58:54 02:00</time>
      </trkpt>
      <trkpt lat="42.59031" lon="2.05186">
        <ele>1803</ele>
        <time>2016-09-04T11:59:06 02:00</time>
      </trkpt>
      <trkpt lat="42.59058" lon="2.052">
        <ele>1797</ele>
        <time>2016-09-04T11:59:25 02:00</time>
      </trkpt>
      <trkpt lat="42.59081" lon="2.05208">
        <ele>1794</ele>
        <time>2016-09-04T11:59:46 02:00</time>
      </trkpt>
      <trkpt lat="42.59093" lon="2.05229">
        <ele>1793</ele>
        <time>2016-09-04T12:00:07 02:00</time>
      </trkpt>
      <trkpt lat="42.59106" lon="2.05244">
        <ele>1794</ele>
        <time>2016-09-04T12:00:26 02:00</time>
      </trkpt>
      <trkpt lat="42.59121" lon="2.05258">
        <ele>1798</ele>
        <time>2016-09-04T12:00:43 02:00</time>
      </trkpt>
      <trkpt lat="42.59133" lon="2.05271">
        <ele>1802</ele>
        <time>2016-09-04T12:01:00 02:00</time>
      </trkpt>
      <trkpt lat="42.59144" lon="2.05294">
        <ele>1806</ele>
        <time>2016-09-04T12:01:19 02:00</time>
      </trkpt>
      <trkpt lat="42.59148" lon="2.05323">
        <ele>1807</ele>
        <time>2016-09-04T12:01:42 02:00</time>
      </trkpt>
      <trkpt lat="42.59149" lon="2.05342">
        <ele>1808</ele>
        <time>2016-09-04T12:02:10 02:00</time>
      </trkpt>
      <trkpt lat="42.59152" lon="2.05371">
        <ele>1809</ele>
        <time>2016-09-04T12:02:36 02:00</time>
      </trkpt>
      <trkpt lat="42.59153" lon="2.0538">
        <ele>1809</ele>
        <time>2016-09-04T12:02:45 02:00</time>
      </trkpt>
      <trkpt lat="42.59161" lon="2.05407">
        <ele>1812</ele>
        <time>2016-09-04T12:03:06 02:00</time>
      </trkpt>
      <trkpt lat="42.59157" lon="2.05426">
        <ele>1811</ele>
        <time>2016-09-04T12:03:27 02:00</time>
      </trkpt>
      <trkpt lat="42.5916" lon="2.05459">
        <ele>1813</ele>
        <time>2016-09-04T12:03:49 02:00</time>
      </trkpt>
      <trkpt lat="42.59157" lon="2.05478">
        <ele>1813</ele>
        <time>2016-09-04T12:04:01 02:00</time>
      </trkpt>
      <trkpt lat="42.59154" lon="2.05501">
        <ele>1814</ele>
        <time>2016-09-04T12:04:15 02:00</time>
      </trkpt>
      <trkpt lat="42.59154" lon="2.05524">
        <ele>1815</ele>
        <time>2016-09-04T12:04:28 02:00</time>
      </trkpt>
      <trkpt lat="42.59153" lon="2.05536">
        <ele>1816</ele>
        <time>2016-09-04T12:04:35 02:00</time>
      </trkpt>
      <trkpt lat="42.5915" lon="2.05564">
        <ele>1817</ele>
        <time>2016-09-04T12:04:52 02:00</time>
      </trkpt>
      <trkpt lat="42.59149" lon="2.05574">
        <ele>1818</ele>
        <time>2016-09-04T12:05:00 02:00</time>
      </trkpt>
      <trkpt lat="42.59162" lon="2.05606">
        <ele>1823</ele>
        <time>2016-09-04T12:05:24 02:00</time>
      </trkpt>
      <trkpt lat="42.59164" lon="2.05612">
        <ele>1824</ele>
        <time>2016-09-04T12:05:29 02:00</time>
      </trkpt>
      <trkpt lat="42.59172" lon="2.05642">
        <ele>1829</ele>
        <time>2016-09-04T12:05:55 02:00</time>
      </trkpt>
      <trkpt lat="42.59173" lon="2.05652">
        <ele>1830</ele>
        <time>2016-09-04T12:06:02 02:00</time>
      </trkpt>
      <trkpt lat="42.5917" lon="2.05675">
        <ele>1830</ele>
        <time>2016-09-04T12:06:19 02:00</time>
      </trkpt>
      <trkpt lat="42.59167" lon="2.05705">
        <ele>1831</ele>
        <time>2016-09-04T12:06:36 02:00</time>
      </trkpt>
      <trkpt lat="42.59156" lon="2.05737">
        <ele>1829</ele>
        <time>2016-09-04T12:06:58 02:00</time>
      </trkpt>
      <trkpt lat="42.59154" lon="2.05754">
        <ele>1829</ele>
        <time>2016-09-04T12:07:24 02:00</time>
      </trkpt>
      <trkpt lat="42.59151" lon="2.05777">
        <ele>1830</ele>
        <time>2016-09-04T12:07:40 02:00</time>
      </trkpt>
      <trkpt lat="42.59144" lon="2.05821">
        <ele>1830</ele>
        <time>2016-09-04T12:08:11 02:00</time>
      </trkpt>
      <trkpt lat="42.59144" lon="2.0583">
        <ele>1831</ele>
        <time>2016-09-04T12:08:17 02:00</time>
      </trkpt>
      <trkpt lat="42.59138" lon="2.05854">
        <ele>1829</ele>
        <time>2016-09-04T12:08:38 02:00</time>
      </trkpt>
      <trkpt lat="42.59138" lon="2.05879">
        <ele>1831</ele>
        <time>2016-09-04T12:08:53 02:00</time>
      </trkpt>
      <trkpt lat="42.5914" lon="2.05915">
        <ele>1834</ele>
        <time>2016-09-04T12:09:21 02:00</time>
      </trkpt>
      <trkpt lat="42.59142" lon="2.05954">
        <ele>1834</ele>
        <time>2016-09-04T12:09:52 02:00</time>
      </trkpt>
      <trkpt lat="42.59144" lon="2.05985">
        <ele>1833</ele>
        <time>2016-09-04T12:10:09 02:00</time>
      </trkpt>
      <trkpt lat="42.59143" lon="2.05994">
        <ele>1833</ele>
        <time>2016-09-04T12:10:13 02:00</time>
      </trkpt>
      <trkpt lat="42.59159" lon="2.06028">
        <ele>1836</ele>
        <time>2016-09-04T12:10:36 02:00</time>
      </trkpt>
      <trkpt lat="42.59171" lon="2.06004">
        <ele>1844</ele>
        <time>2016-09-04T12:16:42 02:00</time>
      </trkpt>
      <trkpt lat="42.5917" lon="2.0599">
        <ele>1845</ele>
        <time>2016-09-04T12:16:57 02:00</time>
      </trkpt>
      <trkpt lat="42.59166" lon="2.05962">
        <ele>1845</ele>
        <time>2016-09-04T12:17:24 02:00</time>
      </trkpt>
      <trkpt lat="42.59173" lon="2.05953">
        <ele>1848</ele>
        <time>2016-09-04T12:17:36 02:00</time>
      </trkpt>
      <trkpt lat="42.59183" lon="2.0593">
        <ele>1853</ele>
        <time>2016-09-04T12:17:56 02:00</time>
      </trkpt>
      <trkpt lat="42.59188" lon="2.05915">
        <ele>1856</ele>
        <time>2016-09-04T12:18:13 02:00</time>
      </trkpt>
      <trkpt lat="42.59194" lon="2.05902">
        <ele>1858</ele>
        <time>2016-09-04T12:18:32 02:00</time>
      </trkpt>
      <trkpt lat="42.59201" lon="2.0588">
        <ele>1861</ele>
        <time>2016-09-04T12:18:54 02:00</time>
      </trkpt>
      <trkpt lat="42.59216" lon="2.05869">
        <ele>1866</ele>
        <time>2016-09-04T12:19:14 02:00</time>
      </trkpt>
      <trkpt lat="42.59229" lon="2.05864">
        <ele>1872</ele>
        <time>2016-09-04T12:19:36 02:00</time>
      </trkpt>
      <trkpt lat="42.59241" lon="2.0588">
        <ele>1876</ele>
        <time>2016-09-04T12:19:56 02:00</time>
      </trkpt>
      <trkpt lat="42.59246" lon="2.05895">
        <ele>1877</ele>
        <time>2016-09-04T12:20:06 02:00</time>
      </trkpt>
      <trkpt lat="42.59259" lon="2.05902">
        <ele>1880</ele>
        <time>2016-09-04T12:20:28 02:00</time>
      </trkpt>
      <trkpt lat="42.59279" lon="2.05902">
        <ele>1886</ele>
        <time>2016-09-04T12:21:21 02:00</time>
      </trkpt>
      <trkpt lat="42.59294" lon="2.0592">
        <ele>1889</ele>
        <time>2016-09-04T12:21:45 02:00</time>
      </trkpt>
      <trkpt lat="42.59312" lon="2.05936">
        <ele>1892</ele>
        <time>2016-09-04T12:22:26 02:00</time>
      </trkpt>
      <trkpt lat="42.59329" lon="2.05941">
        <ele>1896</ele>
        <time>2016-09-04T12:23:03 02:00</time>
      </trkpt>
      <trkpt lat="42.59337" lon="2.05932">
        <ele>1898</ele>
        <time>2016-09-04T12:24:17 02:00</time>
      </trkpt>
      <trkpt lat="42.59333" lon="2.05903">
        <ele>1901</ele>
        <time>2016-09-04T12:24:46 02:00</time>
      </trkpt>
      <trkpt lat="42.59333" lon="2.0587">
        <ele>1904</ele>
        <time>2016-09-04T12:25:13 02:00</time>
      </trkpt>
      <trkpt lat="42.59333" lon="2.05851">
        <ele>1906</ele>
        <time>2016-09-04T12:25:26 02:00</time>
      </trkpt>
      <trkpt lat="42.59336" lon="2.05823">
        <ele>1907</ele>
        <time>2016-09-04T12:25:48 02:00</time>
      </trkpt>
      <trkpt lat="42.59341" lon="2.05798">
        <ele>1908</ele>
        <time>2016-09-04T12:26:09 02:00</time>
      </trkpt>
      <trkpt lat="42.59345" lon="2.05769">
        <ele>1909</ele>
        <time>2016-09-04T12:26:34 02:00</time>
      </trkpt>
      <trkpt lat="42.59347" lon="2.05743">
        <ele>1910</ele>
        <time>2016-09-04T12:26:51 02:00</time>
      </trkpt>
      <trkpt lat="42.59352" lon="2.05715">
        <ele>1912</ele>
        <time>2016-09-04T12:27:12 02:00</time>
      </trkpt>
      <trkpt lat="42.59354" lon="2.05695">
        <ele>1913</ele>
        <time>2016-09-04T12:27:25 02:00</time>
      </trkpt>
      <trkpt lat="42.59352" lon="2.0567">
        <ele>1915</ele>
        <time>2016-09-04T12:27:34 02:00</time>
      </trkpt>
      <trkpt lat="42.59359" lon="2.0564">
        <ele>1915</ele>
        <time>2016-09-04T12:27:55 02:00</time>
      </trkpt>
      <trkpt lat="42.59366" lon="2.05617">
        <ele>1916</ele>
        <time>2016-09-04T12:28:14 02:00</time>
      </trkpt>
      <trkpt lat="42.5937" lon="2.05588">
        <ele>1916</ele>
        <time>2016-09-04T12:28:35 02:00</time>
      </trkpt>
      <trkpt lat="42.5937" lon="2.05556">
        <ele>1916</ele>
        <time>2016-09-04T12:28:56 02:00</time>
      </trkpt>
      <trkpt lat="42.5938" lon="2.0553">
        <ele>1918</ele>
        <time>2016-09-04T12:29:15 02:00</time>
      </trkpt>
      <trkpt lat="42.59382" lon="2.055">
        <ele>1918</ele>
        <time>2016-09-04T12:29:28 02:00</time>
      </trkpt>
      <trkpt lat="42.59381" lon="2.05493">
        <ele>1918</ele>
        <time>2016-09-04T12:29:32 02:00</time>
      </trkpt>
      <trkpt lat="42.59388" lon="2.05467">
        <ele>1919</ele>
        <time>2016-09-04T12:29:50 02:00</time>
      </trkpt>
      <trkpt lat="42.5939" lon="2.05444">
        <ele>1919</ele>
        <time>2016-09-04T12:30:05 02:00</time>
      </trkpt>
      <trkpt lat="42.59389" lon="2.05419">
        <ele>1918</ele>
        <time>2016-09-04T12:30:28 02:00</time>
      </trkpt>
      <trkpt lat="42.5939" lon="2.05409">
        <ele>1918</ele>
        <time>2016-09-04T12:30:36 02:00</time>
      </trkpt>
      <trkpt lat="42.5939" lon="2.05383">
        <ele>1918</ele>
        <time>2016-09-04T12:30:54 02:00</time>
      </trkpt>
      <trkpt lat="42.59393" lon="2.05358">
        <ele>1919</ele>
        <time>2016-09-04T12:31:14 02:00</time>
      </trkpt>
      <trkpt lat="42.59395" lon="2.0533">
        <ele>1920</ele>
        <time>2016-09-04T12:31:34 02:00</time>
      </trkpt>
      <trkpt lat="42.59396" lon="2.05305">
        <ele>1922</ele>
        <time>2016-09-04T12:31:48 02:00</time>
      </trkpt>
      <trkpt lat="42.59404" lon="2.05291">
        <ele>1925</ele>
        <time>2016-09-04T12:35:51 02:00</time>
      </trkpt>
      <trkpt lat="42.59409" lon="2.05261">
        <ele>1929</ele>
        <time>2016-09-04T12:36:12 02:00</time>
      </trkpt>
      <trkpt lat="42.59416" lon="2.05236">
        <ele>1933</ele>
        <time>2016-09-04T12:36:34 02:00</time>
      </trkpt>
      <trkpt lat="42.59418" lon="2.05213">
        <ele>1934</ele>
        <time>2016-09-04T12:36:50 02:00</time>
      </trkpt>
      <trkpt lat="42.59423" lon="2.05193">
        <ele>1935</ele>
        <time>2016-09-04T12:37:09 02:00</time>
      </trkpt>
      <trkpt lat="42.59429" lon="2.05164">
        <ele>1937</ele>
        <time>2016-09-04T12:37:28 02:00</time>
      </trkpt>
      <trkpt lat="42.59424" lon="2.05132">
        <ele>1941</ele>
        <time>2016-09-04T12:37:54 02:00</time>
      </trkpt>
      <trkpt lat="42.59418" lon="2.05105">
        <ele>1944</ele>
        <time>2016-09-04T12:38:14 02:00</time>
      </trkpt>
      <trkpt lat="42.59419" lon="2.0508">
        <ele>1947</ele>
        <time>2016-09-04T12:38:40 02:00</time>
      </trkpt>
      <trkpt lat="42.59419" lon="2.05053">
        <ele>1952</ele>
        <time>2016-09-04T12:39:04 02:00</time>
      </trkpt>
      <trkpt lat="42.59414" lon="2.05034">
        <ele>1955</ele>
        <time>2016-09-04T12:39:24 02:00</time>
      </trkpt>
      <trkpt lat="42.59412" lon="2.05013">
        <ele>1958</ele>
        <time>2016-09-04T12:39:46 02:00</time>
      </trkpt>
      <trkpt lat="42.59406" lon="2.04986">
        <ele>1961</ele>
        <time>2016-09-04T12:40:23 02:00</time>
      </trkpt>
      <trkpt lat="42.59408" lon="2.04965">
        <ele>1966</ele>
        <time>2016-09-04T12:40:48 02:00</time>
      </trkpt>
      <trkpt lat="42.5942" lon="2.04955">
        <ele>1971</ele>
        <time>2016-09-04T12:41:10 02:00</time>
      </trkpt>
      <trkpt lat="42.59438" lon="2.04944">
        <ele>1975</ele>
        <time>2016-09-04T12:41:35 02:00</time>
      </trkpt>
      <trkpt lat="42.59446" lon="2.04933">
        <ele>1979</ele>
        <time>2016-09-04T12:41:54 02:00</time>
      </trkpt>
      <trkpt lat="42.59453" lon="2.04921">
        <ele>1982</ele>
        <time>2016-09-04T12:42:16 02:00</time>
      </trkpt>
      <trkpt lat="42.59458" lon="2.049">
        <ele>1988</ele>
        <time>2016-09-04T12:42:38 02:00</time>
      </trkpt>
      <trkpt lat="42.59448" lon="2.04877">
        <ele>1992</ele>
        <time>2016-09-04T12:43:18 02:00</time>
      </trkpt>
      <trkpt lat="42.59447" lon="2.04853">
        <ele>1998</ele>
        <time>2016-09-04T12:43:54 02:00</time>
      </trkpt>
      <trkpt lat="42.59443" lon="2.04828">
        <ele>2003</ele>
        <time>2016-09-04T12:44:28 02:00</time>
      </trkpt>
      <trkpt lat="42.59435" lon="2.04811">
        <ele>2005</ele>
        <time>2016-09-04T12:44:46 02:00</time>
      </trkpt>
      <trkpt lat="42.5943" lon="2.04796">
        <ele>2008</ele>
        <time>2016-09-04T12:45:06 02:00</time>
      </trkpt>
      <trkpt lat="42.5942" lon="2.04772">
        <ele>2011</ele>
        <time>2016-09-04T12:45:47 02:00</time>
      </trkpt>
      <trkpt lat="42.59415" lon="2.0476">
        <ele>2013</ele>
        <time>2016-09-04T12:46:03 02:00</time>
      </trkpt>
      <trkpt lat="42.59404" lon="2.04738">
        <ele>2012</ele>
        <time>2016-09-04T12:46:26 02:00</time>
      </trkpt>
      <trkpt lat="42.59399" lon="2.04719">
        <ele>2011</ele>
        <time>2016-09-04T12:46:49 02:00</time>
      </trkpt>
      <trkpt lat="42.594" lon="2.04702">
        <ele>2013</ele>
        <time>2016-09-04T12:47:09 02:00</time>
      </trkpt>
      <trkpt lat="42.59415" lon="2.04695">
        <ele>2021</ele>
        <time>2016-09-04T12:47:36 02:00</time>
      </trkpt>
      <trkpt lat="42.59417" lon="2.04674">
        <ele>2024</ele>
        <time>2016-09-04T12:47:57 02:00</time>
      </trkpt>
      <trkpt lat="42.59417" lon="2.04664">
        <ele>2025</ele>
        <time>2016-09-04T12:48:06 02:00</time>
      </trkpt>
      <trkpt lat="42.59422" lon="2.04639">
        <ele>2025</ele>
        <time>2016-09-04T12:48:31 02:00</time>
      </trkpt>
      <trkpt lat="42.59432" lon="2.04627">
        <ele>2028</ele>
        <time>2016-09-04T12:49:01 02:00</time>
      </trkpt>
      <trkpt lat="42.59454" lon="2.04617">
        <ele>2034</ele>
        <time>2016-09-04T12:50:12 02:00</time>
      </trkpt>
      <trkpt lat="42.59475" lon="2.04623">
        <ele>2040</ele>
        <time>2016-09-04T12:50:33 02:00</time>
      </trkpt>
      <trkpt lat="42.59494" lon="2.04614">
        <ele>2045</ele>
        <time>2016-09-04T12:50:58 02:00</time>
      </trkpt>
      <trkpt lat="42.59497" lon="2.04594">
        <ele>2046</ele>
        <time>2016-09-04T12:51:15 02:00</time>
      </trkpt>
      <trkpt lat="42.59518" lon="2.04575">
        <ele>2048</ele>
        <time>2016-09-04T12:51:40 02:00</time>
      </trkpt>
      <trkpt lat="42.59529" lon="2.0457">
        <ele>2050</ele>
        <time>2016-09-04T12:51:52 02:00</time>
      </trkpt>
      <trkpt lat="42.59551" lon="2.04556">
        <ele>2053</ele>
        <time>2016-09-04T12:52:21 02:00</time>
      </trkpt>
      <trkpt lat="42.5957" lon="2.04531">
        <ele>2057</ele>
        <time>2016-09-04T12:52:51 02:00</time>
      </trkpt>
      <trkpt lat="42.59574" lon="2.04522">
        <ele>2057</ele>
        <time>2016-09-04T12:52:57 02:00</time>
      </trkpt>
      <trkpt lat="42.59576" lon="2.04487">
        <ele>2058</ele>
        <time>2016-09-04T12:53:24 02:00</time>
      </trkpt>
      <trkpt lat="42.59584" lon="2.04456">
        <ele>2062</ele>
        <time>2016-09-04T12:53:52 02:00</time>
      </trkpt>
      <trkpt lat="42.59591" lon="2.04425">
        <ele>2064</ele>
        <time>2016-09-04T12:54:20 02:00</time>
      </trkpt>
      <trkpt lat="42.59593" lon="2.04411">
        <ele>2065</ele>
        <time>2016-09-04T12:54:35 02:00</time>
      </trkpt>
      <trkpt lat="42.59591" lon="2.04383">
        <ele>2068</ele>
        <time>2016-09-04T12:54:54 02:00</time>
      </trkpt>
      <trkpt lat="42.59588" lon="2.0436">
        <ele>2070</ele>
        <time>2016-09-04T12:55:16 02:00</time>
      </trkpt>
      <trkpt lat="42.59585" lon="2.04335">
        <ele>2072</ele>
        <time>2016-09-04T12:55:43 02:00</time>
      </trkpt>
      <trkpt lat="42.59582" lon="2.04305">
        <ele>2074</ele>
        <time>2016-09-04T12:56:05 02:00</time>
      </trkpt>
      <trkpt lat="42.59586" lon="2.04277">
        <ele>2078</ele>
        <time>2016-09-04T12:56:36 02:00</time>
      </trkpt>
      <trkpt lat="42.59595" lon="2.04262">
        <ele>2080</ele>
        <time>2016-09-04T12:56:55 02:00</time>
      </trkpt>
      <trkpt lat="42.59595" lon="2.04235">
        <ele>2083</ele>
        <time>2016-09-04T12:57:23 02:00</time>
      </trkpt>
      <trkpt lat="42.5959" lon="2.04212">
        <ele>2086</ele>
        <time>2016-09-04T12:57:42 02:00</time>
      </trkpt>
      <trkpt lat="42.59596" lon="2.04191">
        <ele>2089</ele>
        <time>2016-09-04T12:58:04 02:00</time>
      </trkpt>
      <trkpt lat="42.596" lon="2.0417">
        <ele>2092</ele>
        <time>2016-09-04T12:58:25 02:00</time>
      </trkpt>
      <trkpt lat="42.59606" lon="2.04153">
        <ele>2094</ele>
        <time>2016-09-04T12:58:44 02:00</time>
      </trkpt>
      <trkpt lat="42.59605" lon="2.04129">
        <ele>2098</ele>
        <time>2016-09-04T12:59:09 02:00</time>
      </trkpt>
      <trkpt lat="42.59597" lon="2.04108">
        <ele>2100</ele>
        <time>2016-09-04T12:59:29 02:00</time>
      </trkpt>
      <trkpt lat="42.5959" lon="2.04085">
        <ele>2102</ele>
        <time>2016-09-04T12:59:52 02:00</time>
      </trkpt>
      <trkpt lat="42.59606" lon="2.04069">
        <ele>2106</ele>
        <time>2016-09-04T13:00:16 02:00</time>
      </trkpt>
      <trkpt lat="42.59628" lon="2.04057">
        <ele>2109</ele>
        <time>2016-09-04T13:00:43 02:00</time>
      </trkpt>
      <trkpt lat="42.59639" lon="2.0404">
        <ele>2112</ele>
        <time>2016-09-04T13:01:07 02:00</time>
      </trkpt>
      <trkpt lat="42.59637" lon="2.04026">
        <ele>2114</ele>
        <time>2016-09-04T13:01:25 02:00</time>
      </trkpt>
      <trkpt lat="42.59643" lon="2.04005">
        <ele>2117</ele>
        <time>2016-09-04T13:01:47 02:00</time>
      </trkpt>
      <trkpt lat="42.59647" lon="2.03987">
        <ele>2121</ele>
        <time>2016-09-04T13:02:10 02:00</time>
      </trkpt>
      <trkpt lat="42.59646" lon="2.03973">
        <ele>2124</ele>
        <time>2016-09-04T13:02:27 02:00</time>
      </trkpt>
      <trkpt lat="42.59664" lon="2.03964">
        <ele>2127</ele>
        <time>2016-09-04T13:02:50 02:00</time>
      </trkpt>
      <trkpt lat="42.59683" lon="2.03956">
        <ele>2130</ele>
        <time>2016-09-04T13:03:15 02:00</time>
      </trkpt>
      <trkpt lat="42.59695" lon="2.03942">
        <ele>2133</ele>
        <time>2016-09-04T13:03:36 02:00</time>
      </trkpt>
      <trkpt lat="42.59697" lon="2.03922">
        <ele>2137</ele>
        <time>2016-09-04T13:03:55 02:00</time>
      </trkpt>
      <trkpt lat="42.59698" lon="2.03896">
        <ele>2143</ele>
        <time>2016-09-04T13:04:35 02:00</time>
      </trkpt>
      <trkpt lat="42.59689" lon="2.03882">
        <ele>2146</ele>
        <time>2016-09-04T13:04:57 02:00</time>
      </trkpt>
      <trkpt lat="42.5969" lon="2.03852">
        <ele>2153</ele>
        <time>2016-09-04T13:05:35 02:00</time>
      </trkpt>
      <trkpt lat="42.59699" lon="2.03831">
        <ele>2158</ele>
        <time>2016-09-04T13:06:12 02:00</time>
      </trkpt>
      <trkpt lat="42.59717" lon="2.03814">
        <ele>2162</ele>
        <time>2016-09-04T13:06:50 02:00</time>
      </trkpt>
      <trkpt lat="42.59734" lon="2.03805">
        <ele>2166</ele>
        <time>2016-09-04T13:07:14 02:00</time>
      </trkpt>
      <trkpt lat="42.59728" lon="2.03777">
        <ele>2173</ele>
        <time>2016-09-04T13:07:54 02:00</time>
      </trkpt>
      <trkpt lat="42.59717" lon="2.03755">
        <ele>2177</ele>
        <time>2016-09-04T13:08:21 02:00</time>
      </trkpt>
      <trkpt lat="42.59719" lon="2.03727">
        <ele>2182</ele>
        <time>2016-09-04T13:08:55 02:00</time>
      </trkpt>
      <trkpt lat="42.59739" lon="2.03716">
        <ele>2187</ele>
        <time>2016-09-04T13:09:33 02:00</time>
      </trkpt>
      <trkpt lat="42.59745" lon="2.03708">
        <ele>2189</ele>
        <time>2016-09-04T13:09:50 02:00</time>
      </trkpt>
      <trkpt lat="42.59752" lon="2.03688">
        <ele>2194</ele>
        <time>2016-09-04T13:10:13 02:00</time>
      </trkpt>
      <trkpt lat="42.59768" lon="2.03676">
        <ele>2198</ele>
        <time>2016-09-04T13:10:53 02:00</time>
      </trkpt>
      <trkpt lat="42.59792" lon="2.03677">
        <ele>2201</ele>
        <time>2016-09-04T13:11:22 02:00</time>
      </trkpt>
      <trkpt lat="42.59801" lon="2.03663">
        <ele>2205</ele>
        <time>2016-09-04T13:25:58 02:00</time>
      </trkpt>
      <trkpt lat="42.59813" lon="2.03659">
        <ele>2207</ele>
        <time>2016-09-04T13:26:49 02:00</time>
      </trkpt>
      <trkpt lat="42.59819" lon="2.03641">
        <ele>2212</ele>
        <time>2016-09-04T13:27:10 02:00</time>
      </trkpt>
      <trkpt lat="42.59828" lon="2.03627">
        <ele>2217</ele>
        <time>2016-09-04T13:27:36 02:00</time>
      </trkpt>
      <trkpt lat="42.59837" lon="2.03617">
        <ele>2220</ele>
        <time>2016-09-04T13:27:57 02:00</time>
      </trkpt>
      <trkpt lat="42.59849" lon="2.03609">
        <ele>2224</ele>
        <time>2016-09-04T13:28:18 02:00</time>
      </trkpt>
      <trkpt lat="42.59864" lon="2.036">
        <ele>2228</ele>
        <time>2016-09-04T13:28:41 02:00</time>
      </trkpt>
      <trkpt lat="42.59873" lon="2.03587">
        <ele>2232</ele>
        <time>2016-09-04T13:29:02 02:00</time>
      </trkpt>
      <trkpt lat="42.59884" lon="2.03561">
        <ele>2240</ele>
        <time>2016-09-04T13:29:45 02:00</time>
      </trkpt>
      <trkpt lat="42.59892" lon="2.03535">
        <ele>2247</ele>
        <time>2016-09-04T13:30:33 02:00</time>
      </trkpt>
      <trkpt lat="42.59901" lon="2.03516">
        <ele>2253</ele>
        <time>2016-09-04T13:31:11 02:00</time>
      </trkpt>
      <trkpt lat="42.5991" lon="2.03499">
        <ele>2258</ele>
        <time>2016-09-04T13:31:46 02:00</time>
      </trkpt>
      <trkpt lat="42.59924" lon="2.03479">
        <ele>2267</ele>
        <time>2016-09-04T13:32:29 02:00</time>
      </trkpt>
      <trkpt lat="42.5994" lon="2.0347">
        <ele>2274</ele>
        <time>2016-09-04T13:33:09 02:00</time>
      </trkpt>
      <trkpt lat="42.59953" lon="2.0346">
        <ele>2280</ele>
        <time>2016-09-04T13:33:49 02:00</time>
      </trkpt>
      <trkpt lat="42.59956" lon="2.03437">
        <ele>2287</ele>
        <time>2016-09-04T13:34:29 02:00</time>
      </trkpt>
      <trkpt lat="42.59954" lon="2.03409">
        <ele>2294</ele>
        <time>2016-09-04T13:35:09 02:00</time>
      </trkpt>
      <trkpt lat="42.59968" lon="2.03393">
        <ele>2300</ele>
        <time>2016-09-04T13:35:50 02:00</time>
      </trkpt>
      <trkpt lat="42.59978" lon="2.03372">
        <ele>2307</ele>
        <time>2016-09-04T13:37:44 02:00</time>
      </trkpt>
      <trkpt lat="42.59982" lon="2.03351">
        <ele>2312</ele>
        <time>2016-09-04T13:38:19 02:00</time>
      </trkpt>
      <trkpt lat="42.59987" lon="2.03327">
        <ele>2317</ele>
        <time>2016-09-04T13:38:59 02:00</time>
      </trkpt>
      <trkpt lat="42.59991" lon="2.03301">
        <ele>2323</ele>
        <time>2016-09-04T13:39:54 02:00</time>
      </trkpt>
      <trkpt lat="42.59982" lon="2.03285">
        <ele>2326</ele>
        <time>2016-09-04T13:40:20 02:00</time>
      </trkpt>
      <trkpt lat="42.59979" lon="2.03262">
        <ele>2330</ele>
        <time>2016-09-04T13:40:58 02:00</time>
      </trkpt>
      <trkpt lat="42.5998" lon="2.03239">
        <ele>2336</ele>
        <time>2016-09-04T13:41:36 02:00</time>
      </trkpt>
      <trkpt lat="42.59974" lon="2.03217">
        <ele>2341</ele>
        <time>2016-09-04T13:42:12 02:00</time>
      </trkpt>
      <trkpt lat="42.59971" lon="2.03193">
        <ele>2347</ele>
        <time>2016-09-04T13:42:47 02:00</time>
      </trkpt>
      <trkpt lat="42.5996" lon="2.03168">
        <ele>2352</ele>
        <time>2016-09-04T13:43:23 02:00</time>
      </trkpt>
      <trkpt lat="42.59966" lon="2.0315">
        <ele>2355</ele>
        <time>2016-09-04T13:43:57 02:00</time>
      </trkpt>
      <trkpt lat="42.59972" lon="2.03123">
        <ele>2359</ele>
        <time>2016-09-04T13:44:48 02:00</time>
      </trkpt>
      <trkpt lat="42.59986" lon="2.03101">
        <ele>2365</ele>
        <time>2016-09-04T13:45:26 02:00</time>
      </trkpt>
      <trkpt lat="42.59994" lon="2.03093">
        <ele>2368</ele>
        <time>2016-09-04T13:45:45 02:00</time>
      </trkpt>
      <trkpt lat="42.60005" lon="2.03081">
        <ele>2373</ele>
        <time>2016-09-04T13:46:10 02:00</time>
      </trkpt>
      <trkpt lat="42.6002" lon="2.03073">
        <ele>2378</ele>
        <time>2016-09-04T13:46:58 02:00</time>
      </trkpt>
      <trkpt lat="42.60028" lon="2.03058">
        <ele>2383</ele>
        <time>2016-09-04T13:47:26 02:00</time>
      </trkpt>
      <trkpt lat="42.60045" lon="2.03046">
        <ele>2390</ele>
        <time>2016-09-04T13:47:58 02:00</time>
      </trkpt>
      <trkpt lat="42.60065" lon="2.03041">
        <ele>2397</ele>
        <time>2016-09-04T13:48:35 02:00</time>
      </trkpt>
      <trkpt lat="42.60074" lon="2.03041">
        <ele>2400</ele>
        <time>2016-09-04T13:48:50 02:00</time>
      </trkpt>
      <trkpt lat="42.60089" lon="2.03045">
        <ele>2404</ele>
        <time>2016-09-04T13:49:14 02:00</time>
      </trkpt>
      <trkpt lat="42.601" lon="2.03046">
        <ele>2406</ele>
        <time>2016-09-04T13:49:35 02:00</time>
      </trkpt>
      <trkpt lat="42.60113" lon="2.03045">
        <ele>2410</ele>
        <time>2016-09-04T13:50:01 02:00</time>
      </trkpt>
      <trkpt lat="42.60126" lon="2.03043">
        <ele>2413</ele>
        <time>2016-09-04T13:50:21 02:00</time>
      </trkpt>
      <trkpt lat="42.60137" lon="2.0304">
        <ele>2416</ele>
        <time>2016-09-04T13:50:40 02:00</time>
      </trkpt>
      <trkpt lat="42.6015" lon="2.03034">
        <ele>2421</ele>
        <time>2016-09-04T13:51:03 02:00</time>
      </trkpt>
      <trkpt lat="42.60166" lon="2.03024">
        <ele>2427</ele>
        <time>2016-09-04T13:51:39 02:00</time>
      </trkpt>
      <trkpt lat="42.60182" lon="2.0302">
        <ele>2431</ele>
        <time>2016-09-04T13:52:03 02:00</time>
      </trkpt>
      <trkpt lat="42.60194" lon="2.03013">
        <ele>2435</ele>
        <time>2016-09-04T13:52:23 02:00</time>
      </trkpt>
      <trkpt lat="42.60203" lon="2.03012">
        <ele>2437</ele>
        <time>2016-09-04T13:52:40 02:00</time>
      </trkpt>
      <trkpt lat="42.60218" lon="2.03007">
        <ele>2441</ele>
        <time>2016-09-04T13:53:00 02:00</time>
      </trkpt>
      <trkpt lat="42.60237" lon="2.03014">
        <ele>2443</ele>
        <time>2016-09-04T13:53:23 02:00</time>
      </trkpt>
      <trkpt lat="42.60246" lon="2.03009">
        <ele>2446</ele>
        <time>2016-09-04T13:53:37 02:00</time>
      </trkpt>
      <trkpt lat="42.60263" lon="2.03005">
        <ele>2449</ele>
        <time>2016-09-04T13:54:00 02:00</time>
      </trkpt>
      <trkpt lat="42.60278" lon="2.03004">
        <ele>2452</ele>
        <time>2016-09-04T13:54:21 02:00</time>
      </trkpt>
      <trkpt lat="42.60289" lon="2.03001">
        <ele>2454</ele>
        <time>2016-09-04T13:54:37 02:00</time>
      </trkpt>
      <trkpt lat="42.6031" lon="2.03001">
        <ele>2458</ele>
        <time>2016-09-04T13:55:10 02:00</time>
      </trkpt>
      <trkpt lat="42.6033" lon="2.03004">
        <ele>2461</ele>
        <time>2016-09-04T13:55:36 02:00</time>
      </trkpt>
      <trkpt lat="42.6035" lon="2.03007">
        <ele>2462</ele>
        <time>2016-09-04T13:56:04 02:00</time>
      </trkpt>
      <trkpt lat="42.60367" lon="2.03006">
        <ele>2463</ele>
        <time>2016-09-04T13:56:33 02:00</time>
      </trkpt>
      <trkpt lat="42.60377" lon="2.03009">
        <ele>2464</ele>
        <time>2016-09-04T13:56:46 02:00</time>
      </trkpt>
      <trkpt lat="42.60398" lon="2.03064">
        <ele>2464</ele>
        <time>2016-09-04T13:58:08 02:00</time>
      </trkpt>
      <trkpt lat="42.60413" lon="2.03067">
        <ele>2466</ele>
        <time>2016-09-04T13:58:23 02:00</time>
      </trkpt>
      <trkpt lat="42.60424" lon="2.03073">
        <ele>2466</ele>
        <time>2016-09-04T13:58:25 02:00</time>
      </trkpt>
      <trkpt lat="42.60464" lon="2.03085">
        <ele>2464</ele>
        <time>2016-09-04T15:02:15 02:00</time>
      </trkpt>
      <trkpt lat="42.60406" lon="2.03018">
        <ele>2465</ele>
        <time>2016-09-04T15:02:49 02:00</time>
      </trkpt>
      <trkpt lat="42.60395" lon="2.02997">
        <ele>2465</ele>
        <time>2016-09-04T15:06:50 02:00</time>
      </trkpt>
      <trkpt lat="42.60387" lon="2.0298">
        <ele>2463</ele>
        <time>2016-09-04T15:07:20 02:00</time>
      </trkpt>
      <trkpt lat="42.60376" lon="2.02962">
        <ele>2462</ele>
        <time>2016-09-04T15:07:44 02:00</time>
      </trkpt>
      <trkpt lat="42.60366" lon="2.02947">
        <ele>2461</ele>
        <time>2016-09-04T15:08:07 02:00</time>
      </trkpt>
      <trkpt lat="42.60354" lon="2.02944">
        <ele>2460</ele>
        <time>2016-09-04T15:08:22 02:00</time>
      </trkpt>
      <trkpt lat="42.60336" lon="2.02923">
        <ele>2459</ele>
        <time>2016-09-04T15:08:48 02:00</time>
      </trkpt>
      <trkpt lat="42.60335" lon="2.02923">
        <ele>2459</ele>
        <time>2016-09-04T15:08:49 02:00</time>
      </trkpt>
      <trkpt lat="42.60315" lon="2.02899">
        <ele>2457</ele>
        <time>2016-09-04T15:09:17 02:00</time>
      </trkpt>
      <trkpt lat="42.60299" lon="2.02872">
        <ele>2455</ele>
        <time>2016-09-04T15:09:44 02:00</time>
      </trkpt>
      <trkpt lat="42.60276" lon="2.02839">
        <ele>2453</ele>
        <time>2016-09-04T15:10:17 02:00</time>
      </trkpt>
      <trkpt lat="42.60259" lon="2.02812">
        <ele>2451</ele>
        <time>2016-09-04T15:10:44 02:00</time>
      </trkpt>
      <trkpt lat="42.6025" lon="2.02797">
        <ele>2450</ele>
        <time>2016-09-04T15:11:00 02:00</time>
      </trkpt>
      <trkpt lat="42.60231" lon="2.02767">
        <ele>2448</ele>
        <time>2016-09-04T15:11:31 02:00</time>
      </trkpt>
      <trkpt lat="42.60213" lon="2.0275">
        <ele>2447</ele>
        <time>2016-09-04T15:12:20 02:00</time>
      </trkpt>
      <trkpt lat="42.60199" lon="2.02731">
        <ele>2445</ele>
        <time>2016-09-04T15:12:40 02:00</time>
      </trkpt>
      <trkpt lat="42.60187" lon="2.02713">
        <ele>2442</ele>
        <time>2016-09-04T15:13:00 02:00</time>
      </trkpt>
      <trkpt lat="42.6017" lon="2.02699">
        <ele>2440</ele>
        <time>2016-09-04T15:13:19 02:00</time>
      </trkpt>
      <trkpt lat="42.6015" lon="2.02673">
        <ele>2437</ele>
        <time>2016-09-04T15:13:42 02:00</time>
      </trkpt>
      <trkpt lat="42.60127" lon="2.02645">
        <ele>2434</ele>
        <time>2016-09-04T15:14:15 02:00</time>
      </trkpt>
      <trkpt lat="42.60106" lon="2.02616">
        <ele>2432</ele>
        <time>2016-09-04T15:14:43 02:00</time>
      </trkpt>
      <trkpt lat="42.60077" lon="2.02581">
        <ele>2430</ele>
        <time>2016-09-04T15:15:18 02:00</time>
      </trkpt>
      <trkpt lat="42.60053" lon="2.02545">
        <ele>2425</ele>
        <time>2016-09-04T15:15:53 02:00</time>
      </trkpt>
      <trkpt lat="42.6003" lon="2.02502">
        <ele>2421</ele>
        <time>2016-09-04T15:16:31 02:00</time>
      </trkpt>
      <trkpt lat="42.6002" lon="2.02487">
        <ele>2420</ele>
        <time>2016-09-04T15:16:59 02:00</time>
      </trkpt>
      <trkpt lat="42.60018" lon="2.02469">
        <ele>2419</ele>
        <time>2016-09-04T15:19:24 02:00</time>
      </trkpt>
      <trkpt lat="42.60018" lon="2.02447">
        <ele>2417</ele>
        <time>2016-09-04T15:20:49 02:00</time>
      </trkpt>
      <trkpt lat="42.6001" lon="2.02428">
        <ele>2416</ele>
        <time>2016-09-04T15:21:11 02:00</time>
      </trkpt>
      <trkpt lat="42.60002" lon="2.02417">
        <ele>2416</ele>
        <time>2016-09-04T15:21:27 02:00</time>
      </trkpt>
      <trkpt lat="42.59998" lon="2.02398">
        <ele>2414</ele>
        <time>2016-09-04T15:21:46 02:00</time>
      </trkpt>
      <trkpt lat="42.59995" lon="2.02379">
        <ele>2412</ele>
        <time>2016-09-04T15:22:16 02:00</time>
      </trkpt>
      <trkpt lat="42.59988" lon="2.02342">
        <ele>2409</ele>
        <time>2016-09-04T15:22:46 02:00</time>
      </trkpt>
      <trkpt lat="42.59984" lon="2.02328">
        <ele>2407</ele>
        <time>2016-09-04T15:23:26 02:00</time>
      </trkpt>
      <trkpt lat="42.5998" lon="2.02308">
        <ele>2404</ele>
        <time>2016-09-04T15:23:40 02:00</time>
      </trkpt>
      <trkpt lat="42.59978" lon="2.02294">
        <ele>2402</ele>
        <time>2016-09-04T15:23:50 02:00</time>
      </trkpt>
      <trkpt lat="42.59977" lon="2.02265">
        <ele>2399</ele>
        <time>2016-09-04T15:24:10 02:00</time>
      </trkpt>
      <trkpt lat="42.59975" lon="2.0225">
        <ele>2397</ele>
        <time>2016-09-04T15:24:21 02:00</time>
      </trkpt>
      <trkpt lat="42.59975" lon="2.02232">
        <ele>2394</ele>
        <time>2016-09-04T15:24:32 02:00</time>
      </trkpt>
      <trkpt lat="42.59974" lon="2.02212">
        <ele>2392</ele>
        <time>2016-09-04T15:24:51 02:00</time>
      </trkpt>
      <trkpt lat="42.59974" lon="2.02192">
        <ele>2389</ele>
        <time>2016-09-04T15:25:15 02:00</time>
      </trkpt>
      <trkpt lat="42.59975" lon="2.02171">
        <ele>2386</ele>
        <time>2016-09-04T15:25:31 02:00</time>
      </trkpt>
      <trkpt lat="42.59971" lon="2.02152">
        <ele>2383</ele>
        <time>2016-09-04T15:25:45 02:00</time>
      </trkpt>
      <trkpt lat="42.59969" lon="2.02126">
        <ele>2378</ele>
        <time>2016-09-04T15:26:02 02:00</time>
      </trkpt>
      <trkpt lat="42.59962" lon="2.02096">
        <ele>2373</ele>
        <time>2016-09-04T15:26:23 02:00</time>
      </trkpt>
      <trkpt lat="42.59959" lon="2.02075">
        <ele>2370</ele>
        <time>2016-09-04T15:26:38 02:00</time>
      </trkpt>
      <trkpt lat="42.59954" lon="2.02049">
        <ele>2367</ele>
        <time>2016-09-04T15:26:56 02:00</time>
      </trkpt>
      <trkpt lat="42.59952" lon="2.02038">
        <ele>2365</ele>
        <time>2016-09-04T15:27:07 02:00</time>
      </trkpt>
      <trkpt lat="42.59951" lon="2.02009">
        <ele>2361</ele>
        <time>2016-09-04T15:27:45 02:00</time>
      </trkpt>
      <trkpt lat="42.59949" lon="2.0198">
        <ele>2358</ele>
        <time>2016-09-04T15:28:10 02:00</time>
      </trkpt>
      <trkpt lat="42.59948" lon="2.01972">
        <ele>2358</ele>
        <time>2016-09-04T15:28:17 02:00</time>
      </trkpt>
      <trkpt lat="42.59943" lon="2.01941">
        <ele>2355</ele>
        <time>2016-09-04T15:28:40 02:00</time>
      </trkpt>
      <trkpt lat="42.59937" lon="2.01928">
        <ele>2354</ele>
        <time>2016-09-04T15:28:50 02:00</time>
      </trkpt>
      <trkpt lat="42.59912" lon="2.01912">
        <ele>2353</ele>
        <time>2016-09-04T15:29:14 02:00</time>
      </trkpt>
      <trkpt lat="42.59911" lon="2.01894">
        <ele>2351</ele>
        <time>2016-09-04T15:29:27 02:00</time>
      </trkpt>
      <trkpt lat="42.59909" lon="2.01856">
        <ele>2348</ele>
        <time>2016-09-04T15:29:56 02:00</time>
      </trkpt>
      <trkpt lat="42.59909" lon="2.0183">
        <ele>2346</ele>
        <time>2016-09-04T15:30:14 02:00</time>
      </trkpt>
      <trkpt lat="42.59908" lon="2.01801">
        <ele>2342</ele>
        <time>2016-09-04T15:30:38 02:00</time>
      </trkpt>
      <trkpt lat="42.59906" lon="2.0179">
        <ele>2340</ele>
        <time>2016-09-04T15:31:02 02:00</time>
      </trkpt>
      <trkpt lat="42.59906" lon="2.01765">
        <ele>2337</ele>
        <time>2016-09-04T15:31:23 02:00</time>
      </trkpt>
      <trkpt lat="42.59905" lon="2.01744">
        <ele>2334</ele>
        <time>2016-09-04T15:31:38 02:00</time>
      </trkpt>
      <trkpt lat="42.59899" lon="2.01709">
        <ele>2329</ele>
        <time>2016-09-04T15:32:05 02:00</time>
      </trkpt>
      <trkpt lat="42.59893" lon="2.01682">
        <ele>2326</ele>
        <time>2016-09-04T15:32:28 02:00</time>
      </trkpt>
      <trkpt lat="42.59884" lon="2.01657">
        <ele>2322</ele>
        <time>2016-09-04T15:32:53 02:00</time>
      </trkpt>
      <trkpt lat="42.5988" lon="2.01631">
        <ele>2318</ele>
        <time>2016-09-04T15:33:15 02:00</time>
      </trkpt>
      <trkpt lat="42.59873" lon="2.01611">
        <ele>2315</ele>
        <time>2016-09-04T15:33:32 02:00</time>
      </trkpt>
      <trkpt lat="42.59871" lon="2.01584">
        <ele>2311</ele>
        <time>2016-09-04T15:33:54 02:00</time>
      </trkpt>
      <trkpt lat="42.59866" lon="2.01561">
        <ele>2306</ele>
        <time>2016-09-04T15:34:12 02:00</time>
      </trkpt>
      <trkpt lat="42.5985" lon="2.01539">
        <ele>2302</ele>
        <time>2016-09-04T15:34:42 02:00</time>
      </trkpt>
      <trkpt lat="42.59832" lon="2.01524">
        <ele>2300</ele>
        <time>2016-09-04T15:35:10 02:00</time>
      </trkpt>
      <trkpt lat="42.59823" lon="2.01503">
        <ele>2295</ele>
        <time>2016-09-04T15:36:06 02:00</time>
      </trkpt>
      <trkpt lat="42.59808" lon="2.0148">
        <ele>2290</ele>
        <time>2016-09-04T15:36:44 02:00</time>
      </trkpt>
      <trkpt lat="42.59799" lon="2.01469">
        <ele>2287</ele>
        <time>2016-09-04T15:37:01 02:00</time>
      </trkpt>
      <trkpt lat="42.59791" lon="2.01442">
        <ele>2283</ele>
        <time>2016-09-04T15:37:29 02:00</time>
      </trkpt>
      <trkpt lat="42.59772" lon="2.01417">
        <ele>2279</ele>
        <time>2016-09-04T15:37:55 02:00</time>
      </trkpt>
      <trkpt lat="42.59758" lon="2.01403">
        <ele>2276</ele>
        <time>2016-09-04T15:38:14 02:00</time>
      </trkpt>
      <trkpt lat="42.59743" lon="2.01385">
        <ele>2273</ele>
        <time>2016-09-04T15:38:36 02:00</time>
      </trkpt>
      <trkpt lat="42.59733" lon="2.01369">
        <ele>2270</ele>
        <time>2016-09-04T15:38:52 02:00</time>
      </trkpt>
      <trkpt lat="42.59726" lon="2.01349">
        <ele>2267</ele>
        <time>2016-09-04T15:39:11 02:00</time>
      </trkpt>
      <trkpt lat="42.59719" lon="2.01323">
        <ele>2264</ele>
        <time>2016-09-04T15:39:34 02:00</time>
      </trkpt>
      <trkpt lat="42.59709" lon="2.01293">
        <ele>2260</ele>
        <time>2016-09-04T15:40:00 02:00</time>
      </trkpt>
      <trkpt lat="42.59695" lon="2.01247">
        <ele>2255</ele>
        <time>2016-09-04T15:40:35 02:00</time>
      </trkpt>
      <trkpt lat="42.59684" lon="2.01226">
        <ele>2251</ele>
        <time>2016-09-04T15:40:55 02:00</time>
      </trkpt>
      <trkpt lat="42.59671" lon="2.01201">
        <ele>2246</ele>
        <time>2016-09-04T15:41:18 02:00</time>
      </trkpt>
      <trkpt lat="42.59665" lon="2.01185">
        <ele>2244</ele>
        <time>2016-09-04T15:41:35 02:00</time>
      </trkpt>
      <trkpt lat="42.59656" lon="2.01168">
        <ele>2241</ele>
        <time>2016-09-04T15:41:54 02:00</time>
      </trkpt>
      <trkpt lat="42.59651" lon="2.01154">
        <ele>2238</ele>
        <time>2016-09-04T15:42:07 02:00</time>
      </trkpt>
      <trkpt lat="42.59641" lon="2.01129">
        <ele>2234</ele>
        <time>2016-09-04T15:42:30 02:00</time>
      </trkpt>
      <trkpt lat="42.59629" lon="2.01111">
        <ele>2230</ele>
        <time>2016-09-04T15:42:51 02:00</time>
      </trkpt>
      <trkpt lat="42.59618" lon="2.01095">
        <ele>2226</ele>
        <time>2016-09-04T15:43:10 02:00</time>
      </trkpt>
      <trkpt lat="42.59598" lon="2.01096">
        <ele>2222</ele>
        <time>2016-09-04T15:44:11 02:00</time>
      </trkpt>
      <trkpt lat="42.5959" lon="2.01101">
        <ele>2222</ele>
        <time>2016-09-04T15:44:22 02:00</time>
      </trkpt>
      <trkpt lat="42.59572" lon="2.01104">
        <ele>2219</ele>
        <time>2016-09-04T15:44:43 02:00</time>
      </trkpt>
      <trkpt lat="42.59548" lon="2.0109">
        <ele>2213</ele>
        <time>2016-09-04T15:45:09 02:00</time>
      </trkpt>
      <trkpt lat="42.59529" lon="2.01086">
        <ele>2209</ele>
        <time>2016-09-04T15:50:01 02:00</time>
      </trkpt>
      <trkpt lat="42.59518" lon="2.01082">
        <ele>2207</ele>
        <time>2016-09-04T15:50:25 02:00</time>
      </trkpt>
      <trkpt lat="42.59508" lon="2.01058">
        <ele>2205</ele>
        <time>2016-09-04T15:51:04 02:00</time>
      </trkpt>
      <trkpt lat="42.59497" lon="2.01049">
        <ele>2203</ele>
        <time>2016-09-04T15:51:18 02:00</time>
      </trkpt>
      <trkpt lat="42.59489" lon="2.01055">
        <ele>2201</ele>
        <time>2016-09-04T15:51:27 02:00</time>
      </trkpt>
      <trkpt lat="42.59476" lon="2.0107">
        <ele>2197</ele>
        <time>2016-09-04T15:51:43 02:00</time>
      </trkpt>
      <trkpt lat="42.59466" lon="2.01089">
        <ele>2195</ele>
        <time>2016-09-04T15:52:02 02:00</time>
      </trkpt>
      <trkpt lat="42.59457" lon="2.01105">
        <ele>2193</ele>
        <time>2016-09-04T15:52:23 02:00</time>
      </trkpt>
      <trkpt lat="42.59445" lon="2.01121">
        <ele>2189</ele>
        <time>2016-09-04T15:52:44 02:00</time>
      </trkpt>
      <trkpt lat="42.59436" lon="2.01149">
        <ele>2186</ele>
        <time>2016-09-04T15:53:18 02:00</time>
      </trkpt>
      <trkpt lat="42.59433" lon="2.01167">
        <ele>2185</ele>
        <time>2016-09-04T15:53:41 02:00</time>
      </trkpt>
      <trkpt lat="42.59428" lon="2.0118">
        <ele>2183</ele>
        <time>2016-09-04T15:53:56 02:00</time>
      </trkpt>
      <trkpt lat="42.59411" lon="2.01193">
        <ele>2178</ele>
        <time>2016-09-04T15:54:24 02:00</time>
      </trkpt>
      <trkpt lat="42.59399" lon="2.012">
        <ele>2175</ele>
        <time>2016-09-04T15:54:37 02:00</time>
      </trkpt>
      <trkpt lat="42.59382" lon="2.01202">
        <ele>2172</ele>
        <time>2016-09-04T15:54:52 02:00</time>
      </trkpt>
      <trkpt lat="42.59358" lon="2.01199">
        <ele>2166</ele>
        <time>2016-09-04T15:55:18 02:00</time>
      </trkpt>
      <trkpt lat="42.59342" lon="2.01202">
        <ele>2163</ele>
        <time>2016-09-04T15:58:51 02:00</time>
      </trkpt>
      <trkpt lat="42.59319" lon="2.012">
        <ele>2158</ele>
        <time>2016-09-04T15:59:16 02:00</time>
      </trkpt>
      <trkpt lat="42.59304" lon="2.01199">
        <ele>2155</ele>
        <time>2016-09-04T15:59:33 02:00</time>
      </trkpt>
      <trkpt lat="42.5929" lon="2.01201">
        <ele>2152</ele>
        <time>2016-09-04T15:59:52 02:00</time>
      </trkpt>
      <trkpt lat="42.59278" lon="2.01207">
        <ele>2150</ele>
        <time>2016-09-04T16:00:09 02:00</time>
      </trkpt>
      <trkpt lat="42.59267" lon="2.01209">
        <ele>2148</ele>
        <time>2016-09-04T16:00:24 02:00</time>
      </trkpt>
      <trkpt lat="42.59254" lon="2.01217">
        <ele>2146</ele>
        <time>2016-09-04T16:00:43 02:00</time>
      </trkpt>
      <trkpt lat="42.59234" lon="2.01219">
        <ele>2142</ele>
        <time>2016-09-04T16:01:05 02:00</time>
      </trkpt>
      <trkpt lat="42.59217" lon="2.01211">
        <ele>2138</ele>
        <time>2016-09-04T16:01:23 02:00</time>
      </trkpt>
      <trkpt lat="42.59191" lon="2.01199">
        <ele>2133</ele>
        <time>2016-09-04T16:01:50 02:00</time>
      </trkpt>
      <trkpt lat="42.59162" lon="2.01192">
        <ele>2128</ele>
        <time>2016-09-04T16:02:18 02:00</time>
      </trkpt>
      <trkpt lat="42.59135" lon="2.01178">
        <ele>2126</ele>
        <time>2016-09-04T16:02:48 02:00</time>
      </trkpt>
      <trkpt lat="42.59124" lon="2.0117">
        <ele>2124</ele>
        <time>2016-09-04T16:03:02 02:00</time>
      </trkpt>
      <trkpt lat="42.59068" lon="2.01165">
        <ele>2120</ele>
        <time>2016-09-04T16:03:56 02:00</time>
      </trkpt>
      <trkpt lat="42.59047" lon="2.01186">
        <ele>2120</ele>
        <time>2016-09-04T16:04:24 02:00</time>
      </trkpt>
      <trkpt lat="42.59027" lon="2.0121">
        <ele>2121</ele>
        <time>2016-09-04T16:04:51 02:00</time>
      </trkpt>
      <trkpt lat="42.59008" lon="2.01243">
        <ele>2123</ele>
        <time>2016-09-04T16:05:21 02:00</time>
      </trkpt>
      <trkpt lat="42.58998" lon="2.01273">
        <ele>2124</ele>
        <time>2016-09-04T16:05:49 02:00</time>
      </trkpt>
      <trkpt lat="42.58998" lon="2.01276">
        <ele>2124</ele>
        <time>2016-09-04T16:05:51 02:00</time>
      </trkpt>
      <trkpt lat="42.58995" lon="2.0133">
        <ele>2123</ele>
        <time>2016-09-04T16:06:27 02:00</time>
      </trkpt>
      <trkpt lat="42.58995" lon="2.01381">
        <ele>2121</ele>
        <time>2016-09-04T16:07:00 02:00</time>
      </trkpt>
      <trkpt lat="42.58996" lon="2.01392">
        <ele>2120</ele>
        <time>2016-09-04T16:07:08 02:00</time>
      </trkpt>
      <trkpt lat="42.59" lon="2.01415">
        <ele>2118</ele>
        <time>2016-09-04T16:07:24 02:00</time>
      </trkpt>
      <trkpt lat="42.59" lon="2.01432">
        <ele>2117</ele>
        <time>2016-09-04T16:07:37 02:00</time>
      </trkpt>
      <trkpt lat="42.58998" lon="2.01461">
        <ele>2116</ele>
        <time>2016-09-04T16:08:00 02:00</time>
      </trkpt>
      <trkpt lat="42.58988" lon="2.01504">
        <ele>2114</ele>
        <time>2016-09-04T16:08:31 02:00</time>
      </trkpt>
      <trkpt lat="42.5898" lon="2.01547">
        <ele>2111</ele>
        <time>2016-09-04T16:09:02 02:00</time>
      </trkpt>
      <trkpt lat="42.58977" lon="2.01582">
        <ele>2109</ele>
        <time>2016-09-04T16:09:29 02:00</time>
      </trkpt>
      <trkpt lat="42.58968" lon="2.01602">
        <ele>2108</ele>
        <time>2016-09-04T16:09:45 02:00</time>
      </trkpt>
      <trkpt lat="42.58959" lon="2.01621">
        <ele>2108</ele>
        <time>2016-09-04T16:10:03 02:00</time>
      </trkpt>
      <trkpt lat="42.58942" lon="2.01653">
        <ele>2107</ele>
        <time>2016-09-04T16:10:27 02:00</time>
      </trkpt>
      <trkpt lat="42.58928" lon="2.01676">
        <ele>2107</ele>
        <time>2016-09-04T16:10:58 02:00</time>
      </trkpt>
      <trkpt lat="42.58932" lon="2.01703">
        <ele>2105</ele>
        <time>2016-09-04T16:11:36 02:00</time>
      </trkpt>
      <trkpt lat="42.58942" lon="2.01719">
        <ele>2103</ele>
        <time>2016-09-04T16:12:00 02:00</time>
      </trkpt>
      <trkpt lat="42.58946" lon="2.01745">
        <ele>2100</ele>
        <time>2016-09-04T16:12:37 02:00</time>
      </trkpt>
      <trkpt lat="42.58943" lon="2.01769">
        <ele>2099</ele>
        <time>2016-09-04T16:13:11 02:00</time>
      </trkpt>
      <trkpt lat="42.58936" lon="2.01787">
        <ele>2100</ele>
        <time>2016-09-04T16:13:43 02:00</time>
      </trkpt>
      <trkpt lat="42.58935" lon="2.01813">
        <ele>2099</ele>
        <time>2016-09-04T16:14:04 02:00</time>
      </trkpt>
      <trkpt lat="42.58924" lon="2.01837">
        <ele>2100</ele>
        <time>2016-09-04T16:14:29 02:00</time>
      </trkpt>
      <trkpt lat="42.58919" lon="2.01849">
        <ele>2098</ele>
        <time>2016-09-04T16:14:38 02:00</time>
      </trkpt>
      <trkpt lat="42.58912" lon="2.01869">
        <ele>2095</ele>
        <time>2016-09-04T16:14:56 02:00</time>
      </trkpt>
      <trkpt lat="42.58901" lon="2.01894">
        <ele>2092</ele>
        <time>2016-09-04T16:15:39 02:00</time>
      </trkpt>
      <trkpt lat="42.58885" lon="2.01911">
        <ele>2091</ele>
        <time>2016-09-04T16:16:08 02:00</time>
      </trkpt>
      <trkpt lat="42.58874" lon="2.01926">
        <ele>2089</ele>
        <time>2016-09-04T16:16:36 02:00</time>
      </trkpt>
      <trkpt lat="42.58869" lon="2.01947">
        <ele>2085</ele>
        <time>2016-09-04T16:16:53 02:00</time>
      </trkpt>
      <trkpt lat="42.58849" lon="2.01958">
        <ele>2085</ele>
        <time>2016-09-04T16:17:42 02:00</time>
      </trkpt>
      <trkpt lat="42.58839" lon="2.01983">
        <ele>2079</ele>
        <time>2016-09-04T16:18:41 02:00</time>
      </trkpt>
      <trkpt lat="42.58825" lon="2.02">
        <ele>2077</ele>
        <time>2016-09-04T16:20:07 02:00</time>
      </trkpt>
      <trkpt lat="42.58816" lon="2.02013">
        <ele>2078</ele>
        <time>2016-09-04T16:20:33 02:00</time>
      </trkpt>
      <trkpt lat="42.58807" lon="2.02018">
        <ele>2080</ele>
        <time>2016-09-04T16:20:52 02:00</time>
      </trkpt>
      <trkpt lat="42.58798" lon="2.02038">
        <ele>2079</ele>
        <time>2016-09-04T16:21:19 02:00</time>
      </trkpt>
      <trkpt lat="42.58784" lon="2.02053">
        <ele>2079</ele>
        <time>2016-09-04T16:22:16 02:00</time>
      </trkpt>
      <trkpt lat="42.58771" lon="2.02067">
        <ele>2079</ele>
        <time>2016-09-04T16:23:37 02:00</time>
      </trkpt>
      <trkpt lat="42.5877" lon="2.02094">
        <ele>2074</ele>
        <time>2016-09-04T16:24:13 02:00</time>
      </trkpt>
      <trkpt lat="42.58764" lon="2.02118">
        <ele>2071</ele>
        <time>2016-09-04T16:24:39 02:00</time>
      </trkpt>
      <trkpt lat="42.58749" lon="2.0214">
        <ele>2068</ele>
        <time>2016-09-04T16:25:23 02:00</time>
      </trkpt>
      <trkpt lat="42.58739" lon="2.02165">
        <ele>2067</ele>
        <time>2016-09-04T16:26:01 02:00</time>
      </trkpt>
      <trkpt lat="42.58743" lon="2.02185">
        <ele>2066</ele>
        <time>2016-09-04T16:26:20 02:00</time>
      </trkpt>
      <trkpt lat="42.5874" lon="2.02211">
        <ele>2068</ele>
        <time>2016-09-04T16:26:38 02:00</time>
      </trkpt>
      <trkpt lat="42.58741" lon="2.02236">
        <ele>2068</ele>
        <time>2016-09-04T16:27:00 02:00</time>
      </trkpt>
      <trkpt lat="42.58745" lon="2.02259">
        <ele>2067</ele>
        <time>2016-09-04T16:27:18 02:00</time>
      </trkpt>
      <trkpt lat="42.58752" lon="2.02268">
        <ele>2066</ele>
        <time>2016-09-04T16:27:27 02:00</time>
      </trkpt>
      <trkpt lat="42.58753" lon="2.02289">
        <ele>2069</ele>
        <time>2016-09-04T16:27:46 02:00</time>
      </trkpt>
      <trkpt lat="42.58758" lon="2.02316">
        <ele>2073</ele>
        <time>2016-09-04T16:28:12 02:00</time>
      </trkpt>
      <trkpt lat="42.58759" lon="2.02338">
        <ele>2074</ele>
        <time>2016-09-04T16:28:34 02:00</time>
      </trkpt>
      <trkpt lat="42.58759" lon="2.02355">
        <ele>2072</ele>
        <time>2016-09-04T16:29:59 02:00</time>
      </trkpt>
      <trkpt lat="42.58758" lon="2.02372">
        <ele>2069</ele>
        <time>2016-09-04T16:30:23 02:00</time>
      </trkpt>
      <trkpt lat="42.58754" lon="2.02392">
        <ele>2065</ele>
        <time>2016-09-04T16:30:46 02:00</time>
      </trkpt>
      <trkpt lat="42.58753" lon="2.02409">
        <ele>2062</ele>
        <time>2016-09-04T16:30:59 02:00</time>
      </trkpt>
      <trkpt lat="42.58747" lon="2.02426">
        <ele>2058</ele>
        <time>2016-09-04T16:31:18 02:00</time>
      </trkpt>
      <trkpt lat="42.58745" lon="2.02442">
        <ele>2052</ele>
        <time>2016-09-04T16:31:39 02:00</time>
      </trkpt>
      <trkpt lat="42.58739" lon="2.02467">
        <ele>2045</ele>
        <time>2016-09-04T16:32:01 02:00</time>
      </trkpt>
      <trkpt lat="42.5873" lon="2.02485">
        <ele>2042</ele>
        <time>2016-09-04T16:32:17 02:00</time>
      </trkpt>
      <trkpt lat="42.58725" lon="2.02514">
        <ele>2033</ele>
        <time>2016-09-04T16:32:49 02:00</time>
      </trkpt>
      <trkpt lat="42.58727" lon="2.02526">
        <ele>2029</ele>
        <time>2016-09-04T16:33:06 02:00</time>
      </trkpt>
      <trkpt lat="42.58728" lon="2.02548">
        <ele>2022</ele>
        <time>2016-09-04T16:33:21 02:00</time>
      </trkpt>
      <trkpt lat="42.58728" lon="2.02577">
        <ele>2014</ele>
        <time>2016-09-04T16:33:49 02:00</time>
      </trkpt>
      <trkpt lat="42.58721" lon="2.02592">
        <ele>2014</ele>
        <time>2016-09-04T16:34:18 02:00</time>
      </trkpt>
      <trkpt lat="42.58718" lon="2.02608">
        <ele>2012</ele>
        <time>2016-09-04T16:34:35 02:00</time>
      </trkpt>
      <trkpt lat="42.58705" lon="2.02626">
        <ele>2012</ele>
        <time>2016-09-04T16:35:08 02:00</time>
      </trkpt>
      <trkpt lat="42.587" lon="2.02653">
        <ele>2008</ele>
        <time>2016-09-04T16:35:30 02:00</time>
      </trkpt>
      <trkpt lat="42.58699" lon="2.02666">
        <ele>2006</ele>
        <time>2016-09-04T16:35:40 02:00</time>
      </trkpt>
      <trkpt lat="42.58698" lon="2.02693">
        <ele>2005</ele>
        <time>2016-09-04T16:36:00 02:00</time>
      </trkpt>
      <trkpt lat="42.58699" lon="2.02714">
        <ele>2003</ele>
        <time>2016-09-04T16:36:17 02:00</time>
      </trkpt>
      <trkpt lat="42.58705" lon="2.02733">
        <ele>2000</ele>
        <time>2016-09-04T16:36:42 02:00</time>
      </trkpt>
      <trkpt lat="42.58709" lon="2.02755">
        <ele>1998</ele>
        <time>2016-09-04T16:36:59 02:00</time>
      </trkpt>
      <trkpt lat="42.58709" lon="2.02764">
        <ele>1998</ele>
        <time>2016-09-04T16:37:07 02:00</time>
      </trkpt>
      <trkpt lat="42.58723" lon="2.02787">
        <ele>1993</ele>
        <time>2016-09-04T16:37:35 02:00</time>
      </trkpt>
      <trkpt lat="42.58732" lon="2.02808">
        <ele>1990</ele>
        <time>2016-09-04T16:37:54 02:00</time>
      </trkpt>
      <trkpt lat="42.58742" lon="2.02816">
        <ele>1987</ele>
        <time>2016-09-04T16:38:09 02:00</time>
      </trkpt>
      <trkpt lat="42.58751" lon="2.02828">
        <ele>1984</ele>
        <time>2016-09-04T16:38:20 02:00</time>
      </trkpt>
      <trkpt lat="42.58755" lon="2.02842">
        <ele>1984</ele>
        <time>2016-09-04T16:38:31 02:00</time>
      </trkpt>
      <trkpt lat="42.58767" lon="2.02866">
        <ele>1983</ele>
        <time>2016-09-04T16:38:53 02:00</time>
      </trkpt>
      <trkpt lat="42.58783" lon="2.02888">
        <ele>1982</ele>
        <time>2016-09-04T16:39:21 02:00</time>
      </trkpt>
      <trkpt lat="42.5879" lon="2.02896">
        <ele>1980</ele>
        <time>2016-09-04T16:39:30 02:00</time>
      </trkpt>
      <trkpt lat="42.588" lon="2.0292">
        <ele>1980</ele>
        <time>2016-09-04T16:39:50 02:00</time>
      </trkpt>
      <trkpt lat="42.58808" lon="2.0294">
        <ele>1979</ele>
        <time>2016-09-04T16:40:07 02:00</time>
      </trkpt>
      <trkpt lat="42.58818" lon="2.02966">
        <ele>1979</ele>
        <time>2016-09-04T16:40:30 02:00</time>
      </trkpt>
      <trkpt lat="42.5882" lon="2.02968">
        <ele>1978</ele>
        <time>2016-09-04T16:40:33 02:00</time>
      </trkpt>
      <trkpt lat="42.58832" lon="2.02992">
        <ele>1977</ele>
        <time>2016-09-04T16:40:55 02:00</time>
      </trkpt>
      <trkpt lat="42.58845" lon="2.03013">
        <ele>1975</ele>
        <time>2016-09-04T16:41:13 02:00</time>
      </trkpt>
      <trkpt lat="42.58846" lon="2.03038">
        <ele>1975</ele>
        <time>2016-09-04T16:41:33 02:00</time>
      </trkpt>
      <trkpt lat="42.58847" lon="2.03065">
        <ele>1975</ele>
        <time>2016-09-04T16:41:52 02:00</time>
      </trkpt>
      <trkpt lat="42.58847" lon="2.03071">
        <ele>1976</ele>
        <time>2016-09-04T16:41:56 02:00</time>
      </trkpt>
      <trkpt lat="42.58846" lon="2.03097">
        <ele>1976</ele>
        <time>2016-09-04T16:42:14 02:00</time>
      </trkpt>
      <trkpt lat="42.58849" lon="2.03124">
        <ele>1975</ele>
        <time>2016-09-04T16:42:30 02:00</time>
      </trkpt>
      <trkpt lat="42.58848" lon="2.03152">
        <ele>1975</ele>
        <time>2016-09-04T16:42:49 02:00</time>
      </trkpt>
      <trkpt lat="42.58851" lon="2.03173">
        <ele>1975</ele>
        <time>2016-09-04T16:43:04 02:00</time>
      </trkpt>
      <trkpt lat="42.58856" lon="2.03201">
        <ele>1973</ele>
        <time>2016-09-04T16:43:29 02:00</time>
      </trkpt>
      <trkpt lat="42.58869" lon="2.03222">
        <ele>1971</ele>
        <time>2016-09-04T16:43:48 02:00</time>
      </trkpt>
      <trkpt lat="42.58878" lon="2.03231">
        <ele>1969</ele>
        <time>2016-09-04T16:44:08 02:00</time>
      </trkpt>
      <trkpt lat="42.58878" lon="2.03252">
        <ele>1969</ele>
        <time>2016-09-04T16:44:25 02:00</time>
      </trkpt>
      <trkpt lat="42.5889" lon="2.03273">
        <ele>1967</ele>
        <time>2016-09-04T16:44:41 02:00</time>
      </trkpt>
      <trkpt lat="42.58894" lon="2.0329">
        <ele>1966</ele>
        <time>2016-09-04T16:44:59 02:00</time>
      </trkpt>
      <trkpt lat="42.5889" lon="2.03319">
        <ele>1966</ele>
        <time>2016-09-04T16:45:22 02:00</time>
      </trkpt>
      <trkpt lat="42.5889" lon="2.0333">
        <ele>1966</ele>
        <time>2016-09-04T16:45:32 02:00</time>
      </trkpt>
      <trkpt lat="42.58888" lon="2.0335">
        <ele>1966</ele>
        <time>2016-09-04T16:45:48 02:00</time>
      </trkpt>
      <trkpt lat="42.5889" lon="2.03374">
        <ele>1966</ele>
        <time>2016-09-04T16:46:06 02:00</time>
      </trkpt>
      <trkpt lat="42.5889" lon="2.03397">
        <ele>1966</ele>
        <time>2016-09-04T16:47:12 02:00</time>
      </trkpt>
      <trkpt lat="42.58892" lon="2.03418">
        <ele>1966</ele>
        <time>2016-09-04T16:47:33 02:00</time>
      </trkpt>
      <trkpt lat="42.58898" lon="2.0344">
        <ele>1964</ele>
        <time>2016-09-04T16:47:48 02:00</time>
      </trkpt>
      <trkpt lat="42.58904" lon="2.03468">
        <ele>1963</ele>
        <time>2016-09-04T16:48:12 02:00</time>
      </trkpt>
      <trkpt lat="42.58907" lon="2.03489">
        <ele>1962</ele>
        <time>2016-09-04T16:48:37 02:00</time>
      </trkpt>
      <trkpt lat="42.58903" lon="2.03518">
        <ele>1960</ele>
        <time>2016-09-04T16:49:08 02:00</time>
      </trkpt>
      <trkpt lat="42.58923" lon="2.03527">
        <ele>1955</ele>
        <time>2016-09-04T16:50:06 02:00</time>
      </trkpt>
      <trkpt lat="42.58933" lon="2.03543">
        <ele>1954</ele>
        <time>2016-09-04T16:50:42 02:00</time>
      </trkpt>
      <trkpt lat="42.58945" lon="2.03567">
        <ele>1951</ele>
        <time>2016-09-04T16:51:20 02:00</time>
      </trkpt>
      <trkpt lat="42.58949" lon="2.0359">
        <ele>1949</ele>
        <time>2016-09-04T16:51:45 02:00</time>
      </trkpt>
      <trkpt lat="42.58949" lon="2.03607">
        <ele>1948</ele>
        <time>2016-09-04T16:52:02 02:00</time>
      </trkpt>
      <trkpt lat="42.58947" lon="2.03635">
        <ele>1946</ele>
        <time>2016-09-04T16:52:30 02:00</time>
      </trkpt>
      <trkpt lat="42.58947" lon="2.03649">
        <ele>1945</ele>
        <time>2016-09-04T16:52:48 02:00</time>
      </trkpt>
      <trkpt lat="42.58934" lon="2.03675">
        <ele>1942</ele>
        <time>2016-09-04T16:53:09 02:00</time>
      </trkpt>
      <trkpt lat="42.58934" lon="2.03704">
        <ele>1938</ele>
        <time>2016-09-04T16:53:50 02:00</time>
      </trkpt>
      <trkpt lat="42.58931" lon="2.03726">
        <ele>1935</ele>
        <time>2016-09-04T16:54:18 02:00</time>
      </trkpt>
      <trkpt lat="42.58927" lon="2.0374">
        <ele>1933</ele>
        <time>2016-09-04T16:54:31 02:00</time>
      </trkpt>
      <trkpt lat="42.58928" lon="2.0376">
        <ele>1931</ele>
        <time>2016-09-04T16:54:50 02:00</time>
      </trkpt>
      <trkpt lat="42.58922" lon="2.03773">
        <ele>1928</ele>
        <time>2016-09-04T16:55:09 02:00</time>
      </trkpt>
      <trkpt lat="42.58917" lon="2.03801">
        <ele>1925</ele>
        <time>2016-09-04T16:56:58 02:00</time>
      </trkpt>
      <trkpt lat="42.58919" lon="2.03815">
        <ele>1924</ele>
        <time>2016-09-04T16:57:26 02:00</time>
      </trkpt>
      <trkpt lat="42.58927" lon="2.03841">
        <ele>1923</ele>
        <time>2016-09-04T16:59:33 02:00</time>
      </trkpt>
      <trkpt lat="42.58933" lon="2.03865">
        <ele>1920</ele>
        <time>2016-09-04T16:59:56 02:00</time>
      </trkpt>
      <trkpt lat="42.58945" lon="2.03868">
        <ele>1919</ele>
        <time>2016-09-04T17:00:19 02:00</time>
      </trkpt>
      <trkpt lat="42.58961" lon="2.03885">
        <ele>1915</ele>
        <time>2016-09-04T17:00:46 02:00</time>
      </trkpt>
      <trkpt lat="42.58964" lon="2.03905">
        <ele>1910</ele>
        <time>2016-09-04T17:01:04 02:00</time>
      </trkpt>
      <trkpt lat="42.58976" lon="2.03924">
        <ele>1903</ele>
        <time>2016-09-04T17:01:27 02:00</time>
      </trkpt>
      <trkpt lat="42.5897" lon="2.03949">
        <ele>1899</ele>
        <time>2016-09-04T17:03:33 02:00</time>
      </trkpt>
      <trkpt lat="42.5898" lon="2.03971">
        <ele>1891</ele>
        <time>2016-09-04T17:04:57 02:00</time>
      </trkpt>
      <trkpt lat="42.58997" lon="2.03987">
        <ele>1882</ele>
        <time>2016-09-04T17:05:59 02:00</time>
      </trkpt>
      <trkpt lat="42.59008" lon="2.03982">
        <ele>1882</ele>
        <time>2016-09-04T17:06:16 02:00</time>
      </trkpt>
      <trkpt lat="42.59018" lon="2.03971">
        <ele>1884</ele>
        <time>2016-09-04T17:06:34 02:00</time>
      </trkpt>
      <trkpt lat="42.59039" lon="2.03979">
        <ele>1880</ele>
        <time>2016-09-04T17:06:53 02:00</time>
      </trkpt>
      <trkpt lat="42.59043" lon="2.04001">
        <ele>1873</ele>
        <time>2016-09-04T17:08:02 02:00</time>
      </trkpt>
      <trkpt lat="42.59044" lon="2.04024">
        <ele>1868</ele>
        <time>2016-09-04T17:08:49 02:00</time>
      </trkpt>
      <trkpt lat="42.59065" lon="2.04028">
        <ele>1865</ele>
        <time>2016-09-04T17:09:24 02:00</time>
      </trkpt>
      <trkpt lat="42.5907" lon="2.04025">
        <ele>1865</ele>
        <time>2016-09-04T17:09:27 02:00</time>
      </trkpt>
      <trkpt lat="42.59088" lon="2.04022">
        <ele>1865</ele>
        <time>2016-09-04T17:09:46 02:00</time>
      </trkpt>
      <trkpt lat="42.59097" lon="2.04033">
        <ele>1863</ele>
        <time>2016-09-04T17:10:01 02:00</time>
      </trkpt>
      <trkpt lat="42.59102" lon="2.04054">
        <ele>1859</ele>
        <time>2016-09-04T17:10:45 02:00</time>
      </trkpt>
      <trkpt lat="42.59104" lon="2.04081">
        <ele>1854</ele>
        <time>2016-09-04T17:11:17 02:00</time>
      </trkpt>
      <trkpt lat="42.59091" lon="2.04088">
        <ele>1851</ele>
        <time>2016-09-04T17:11:36 02:00</time>
      </trkpt>
      <trkpt lat="42.59076" lon="2.04086">
        <ele>1851</ele>
        <time>2016-09-04T17:11:58 02:00</time>
      </trkpt>
      <trkpt lat="42.5906" lon="2.04098">
        <ele>1852</ele>
        <time>2016-09-04T17:12:35 02:00</time>
      </trkpt>
      <trkpt lat="42.59043" lon="2.04109">
        <ele>1852</ele>
        <time>2016-09-04T17:13:00 02:00</time>
      </trkpt>
      <trkpt lat="42.59027" lon="2.0411">
        <ele>1854</ele>
        <time>2016-09-04T17:13:31 02:00</time>
      </trkpt>
      <trkpt lat="42.59011" lon="2.04122">
        <ele>1854</ele>
        <time>2016-09-04T17:16:44 02:00</time>
      </trkpt>
      <trkpt lat="42.59001" lon="2.04143">
        <ele>1851</ele>
        <time>2016-09-04T17:17:19 02:00</time>
      </trkpt>
      <trkpt lat="42.58992" lon="2.04167">
        <ele>1850</ele>
        <time>2016-09-04T17:18:11 02:00</time>
      </trkpt>
      <trkpt lat="42.5899" lon="2.0419">
        <ele>1849</ele>
        <time>2016-09-04T17:18:44 02:00</time>
      </trkpt>
      <trkpt lat="42.58994" lon="2.04213">
        <ele>1846</ele>
        <time>2016-09-04T17:19:23 02:00</time>
      </trkpt>
      <trkpt lat="42.58987" lon="2.04231">
        <ele>1847</ele>
        <time>2016-09-04T17:20:06 02:00</time>
      </trkpt>
      <trkpt lat="42.58974" lon="2.04242">
        <ele>1849</ele>
        <time>2016-09-04T17:20:27 02:00</time>
      </trkpt>
      <trkpt lat="42.58954" lon="2.04265">
        <ele>1852</ele>
        <time>2016-09-04T17:20:56 02:00</time>
      </trkpt>
      <trkpt lat="42.58934" lon="2.04287">
        <ele>1853</ele>
        <time>2016-09-04T17:21:20 02:00</time>
      </trkpt>
      <trkpt lat="42.58917" lon="2.04299">
        <ele>1854</ele>
        <time>2016-09-04T17:21:36 02:00</time>
      </trkpt>
      <trkpt lat="42.58906" lon="2.04299">
        <ele>1854</ele>
        <time>2016-09-04T17:21:47 02:00</time>
      </trkpt>
      <trkpt lat="42.5889" lon="2.04301">
        <ele>1853</ele>
        <time>2016-09-04T17:22:05 02:00</time>
      </trkpt>
      <trkpt lat="42.58873" lon="2.04312">
        <ele>1850</ele>
        <time>2016-09-04T17:22:26 02:00</time>
      </trkpt>
      <trkpt lat="42.58853" lon="2.04316">
        <ele>1848</ele>
        <time>2016-09-04T17:22:49 02:00</time>
      </trkpt>
      <trkpt lat="42.58846" lon="2.04318">
        <ele>1847</ele>
        <time>2016-09-04T17:22:56 02:00</time>
      </trkpt>
      <trkpt lat="42.58826" lon="2.04322">
        <ele>1847</ele>
        <time>2016-09-04T17:23:18 02:00</time>
      </trkpt>
      <trkpt lat="42.5882" lon="2.04331">
        <ele>1844</ele>
        <time>2016-09-04T17:23:24 02:00</time>
      </trkpt>
      <trkpt lat="42.58817" lon="2.04355">
        <ele>1842</ele>
        <time>2016-09-04T17:23:45 02:00</time>
      </trkpt>
      <trkpt lat="42.58806" lon="2.04368">
        <ele>1842</ele>
        <time>2016-09-04T17:23:58 02:00</time>
      </trkpt>
      <trkpt lat="42.58801" lon="2.04388">
        <ele>1840</ele>
        <time>2016-09-04T17:24:18 02:00</time>
      </trkpt>
      <trkpt lat="42.58798" lon="2.04408">
        <ele>1838</ele>
        <time>2016-09-04T17:24:53 02:00</time>
      </trkpt>
      <trkpt lat="42.58785" lon="2.04427">
        <ele>1836</ele>
        <time>2016-09-04T17:25:29 02:00</time>
      </trkpt>
      <trkpt lat="42.58785" lon="2.04457">
        <ele>1833</ele>
        <time>2016-09-04T17:26:11 02:00</time>
      </trkpt>
      <trkpt lat="42.58782" lon="2.04472">
        <ele>1831</ele>
        <time>2016-09-04T17:26:28 02:00</time>
      </trkpt>
      <trkpt lat="42.58776" lon="2.04498">
        <ele>1828</ele>
        <time>2016-09-04T17:26:45 02:00</time>
      </trkpt>
      <trkpt lat="42.58773" lon="2.04508">
        <ele>1826</ele>
        <time>2016-09-04T17:26:59 02:00</time>
      </trkpt>
      <trkpt lat="42.5878" lon="2.04532">
        <ele>1825</ele>
        <time>2016-09-04T17:27:18 02:00</time>
      </trkpt>
      <trkpt lat="42.58783" lon="2.04547">
        <ele>1824</ele>
        <time>2016-09-04T17:27:29 02:00</time>
      </trkpt>
      <trkpt lat="42.58784" lon="2.04575">
        <ele>1821</ele>
        <time>2016-09-04T17:27:45 02:00</time>
      </trkpt>
      <trkpt lat="42.58777" lon="2.046">
        <ele>1818</ele>
        <time>2016-09-04T17:28:17 02:00</time>
      </trkpt>
      <trkpt lat="42.5878" lon="2.04615">
        <ele>1817</ele>
        <time>2016-09-04T17:28:29 02:00</time>
      </trkpt>
      <trkpt lat="42.58775" lon="2.04637">
        <ele>1814</ele>
        <time>2016-09-04T17:28:48 02:00</time>
      </trkpt>
      <trkpt lat="42.58768" lon="2.04653">
        <ele>1811</ele>
        <time>2016-09-04T17:29:08 02:00</time>
      </trkpt>
      <trkpt lat="42.58757" lon="2.04672">
        <ele>1808</ele>
        <time>2016-09-04T17:29:42 02:00</time>
      </trkpt>
      <trkpt lat="42.58766" lon="2.04698">
        <ele>1806</ele>
        <time>2016-09-04T17:30:10 02:00</time>
      </trkpt>
      <trkpt lat="42.58775" lon="2.04721">
        <ele>1804</ele>
        <time>2016-09-04T17:30:44 02:00</time>
      </trkpt>
      <trkpt lat="42.58764" lon="2.04743">
        <ele>1800</ele>
        <time>2016-09-04T17:31:22 02:00</time>
      </trkpt>
      <trkpt lat="42.58758" lon="2.04757">
        <ele>1798</ele>
        <time>2016-09-04T17:31:42 02:00</time>
      </trkpt>
      <trkpt lat="42.58754" lon="2.04778">
        <ele>1796</ele>
        <time>2016-09-04T17:32:04 02:00</time>
      </trkpt>
      <trkpt lat="42.58756" lon="2.04799">
        <ele>1794</ele>
        <time>2016-09-04T17:32:24 02:00</time>
      </trkpt>
      <trkpt lat="42.58758" lon="2.04826">
        <ele>1792</ele>
        <time>2016-09-04T17:32:47 02:00</time>
      </trkpt>
      <trkpt lat="42.58771" lon="2.04845">
        <ele>1794</ele>
        <time>2016-09-04T17:33:08 02:00</time>
      </trkpt>
      <trkpt lat="42.58774" lon="2.04854">
        <ele>1795</ele>
        <time>2016-09-04T17:33:15 02:00</time>
      </trkpt>
      <trkpt lat="42.58777" lon="2.04877">
        <ele>1795</ele>
        <time>2016-09-04T17:33:33 02:00</time>
      </trkpt>
      <trkpt lat="42.5878" lon="2.04901">
        <ele>1795</ele>
        <time>2016-09-04T17:34:01 02:00</time>
      </trkpt>
      <trkpt lat="42.58772" lon="2.04922">
        <ele>1792</ele>
        <time>2016-09-04T17:34:17 02:00</time>
      </trkpt>
      <trkpt lat="42.58765" lon="2.04938">
        <ele>1789</ele>
        <time>2016-09-04T17:34:32 02:00</time>
      </trkpt>
      <trkpt lat="42.58768" lon="2.04959">
        <ele>1788</ele>
        <time>2016-09-04T17:34:49 02:00</time>
      </trkpt>
      <trkpt lat="42.58763" lon="2.0498">
        <ele>1786</ele>
        <time>2016-09-04T17:35:09 02:00</time>
      </trkpt>
      <trkpt lat="42.58757" lon="2.05005">
        <ele>1782</ele>
        <time>2016-09-04T17:35:33 02:00</time>
      </trkpt>
      <trkpt lat="42.58758" lon="2.05027">
        <ele>1781</ele>
        <time>2016-09-04T17:35:53 02:00</time>
      </trkpt>
      <trkpt lat="42.58761" lon="2.05057">
        <ele>1780</ele>
        <time>2016-09-04T17:36:17 02:00</time>
      </trkpt>
      <trkpt lat="42.5877" lon="2.05072">
        <ele>1781</ele>
        <time>2016-09-04T17:36:36 02:00</time>
      </trkpt>
      <trkpt lat="42.58781" lon="2.05104">
        <ele>1782</ele>
        <time>2016-09-04T17:37:00 02:00</time>
      </trkpt>
      <trkpt lat="42.58782" lon="2.05105">
        <ele>1782</ele>
        <time>2016-09-04T17:37:01 02:00</time>
      </trkpt>
      <trkpt lat="42.58791" lon="2.05138">
        <ele>1782</ele>
        <time>2016-09-04T17:37:25 02:00</time>
      </trkpt>
      <trkpt lat="42.58795" lon="2.0516">
        <ele>1780</ele>
        <time>2016-09-04T17:37:40 02:00</time>
      </trkpt>
      <trkpt lat="42.58783" lon="2.05171">
        <ele>1778</ele>
        <time>2016-09-04T17:38:30 02:00</time>
      </trkpt>
      <trkpt lat="42.58765" lon="2.05193">
        <ele>1776</ele>
        <time>2016-09-04T17:38:53 02:00</time>
      </trkpt>
      <trkpt lat="42.58755" lon="2.0521">
        <ele>1775</ele>
        <time>2016-09-04T17:39:09 02:00</time>
      </trkpt>
      <trkpt lat="42.58749" lon="2.05247">
        <ele>1774</ele>
        <time>2016-09-04T17:39:35 02:00</time>
      </trkpt>
      <trkpt lat="42.58748" lon="2.05252">
        <ele>1774</ele>
        <time>2016-09-04T17:39:38 02:00</time>
      </trkpt>
      <trkpt lat="42.58736" lon="2.05273">
        <ele>1775</ele>
        <time>2016-09-04T17:40:00 02:00</time>
      </trkpt>
      <trkpt lat="42.5872" lon="2.05292">
        <ele>1775</ele>
        <time>2016-09-04T17:40:22 02:00</time>
      </trkpt>
      <trkpt lat="42.58714" lon="2.05295">
        <ele>1775</ele>
        <time>2016-09-04T17:40:31 02:00</time>
      </trkpt>
      <trkpt lat="42.5869" lon="2.05302">
        <ele>1773</ele>
        <time>2016-09-04T17:40:53 02:00</time>
      </trkpt>
      <trkpt lat="42.58668" lon="2.05291">
        <ele>1773</ele>
        <time>2016-09-04T17:41:36 02:00</time>
      </trkpt>
      <trkpt lat="42.58658" lon="2.0528">
        <ele>1776</ele>
        <time>2016-09-04T17:41:52 02:00</time>
      </trkpt>
      <trkpt lat="42.5864" lon="2.05272">
        <ele>1781</ele>
        <time>2016-09-04T17:42:17 02:00</time>
      </trkpt>
      <trkpt lat="42.58623" lon="2.05271">
        <ele>1785</ele>
        <time>2016-09-04T17:42:40 02:00</time>
      </trkpt>
      <trkpt lat="42.5861" lon="2.05258">
        <ele>1789</ele>
        <time>2016-09-04T17:43:24 02:00</time>
      </trkpt>
      <trkpt lat="42.58596" lon="2.0525">
        <ele>1792</ele>
        <time>2016-09-04T17:43:42 02:00</time>
      </trkpt>
      <trkpt lat="42.58585" lon="2.05238">
        <ele>1796</ele>
        <time>2016-09-04T17:44:03 02:00</time>
      </trkpt>
      <trkpt lat="42.58571" lon="2.05225">
        <ele>1802</ele>
        <time>2016-09-04T17:44:34 02:00</time>
      </trkpt>
      <trkpt lat="42.58561" lon="2.05232">
        <ele>1804</ele>
        <time>2016-09-04T17:44:54 02:00</time>
      </trkpt>
      <trkpt lat="42.58548" lon="2.05251">
        <ele>1805</ele>
        <time>2016-09-04T17:45:35 02:00</time>
      </trkpt>
      <trkpt lat="42.58535" lon="2.05251">
        <ele>1808</ele>
        <time>2016-09-04T17:45:52 02:00</time>
      </trkpt>
      <trkpt lat="42.58529" lon="2.05268">
        <ele>1809</ele>
        <time>2016-09-04T17:46:09 02:00</time>
      </trkpt>
      <trkpt lat="42.58522" lon="2.05282">
        <ele>1809</ele>
        <time>2016-09-04T17:46:21 02:00</time>
      </trkpt>
      <trkpt lat="42.58507" lon="2.05305">
        <ele>1810</ele>
        <time>2016-09-04T17:46:41 02:00</time>
      </trkpt>
      <trkpt lat="42.58499" lon="2.05323">
        <ele>1809</ele>
        <time>2016-09-04T17:47:00 02:00</time>
      </trkpt>
      <trkpt lat="42.58495" lon="2.05349">
        <ele>1806</ele>
        <time>2016-09-04T17:47:21 02:00</time>
      </trkpt>
      <trkpt lat="42.5849" lon="2.05359">
        <ele>1804</ele>
        <time>2016-09-04T17:47:29 02:00</time>
      </trkpt>
      <trkpt lat="42.58493" lon="2.05383">
        <ele>1799</ele>
        <time>2016-09-04T17:47:48 02:00</time>
      </trkpt>
      <trkpt lat="42.58477" lon="2.0539">
        <ele>1800</ele>
        <time>2016-09-04T17:48:25 02:00</time>
      </trkpt>
      <trkpt lat="42.58446" lon="2.05412">
        <ele>1798</ele>
        <time>2016-09-04T17:48:59 02:00</time>
      </trkpt>
      <trkpt lat="42.58443" lon="2.05413">
        <ele>1798</ele>
        <time>2016-09-04T17:49:02 02:00</time>
      </trkpt>
      <trkpt lat="42.58423" lon="2.05432">
        <ele>1797</ele>
        <time>2016-09-04T17:49:25 02:00</time>
      </trkpt>
      <trkpt lat="42.58411" lon="2.05455">
        <ele>1796</ele>
        <time>2016-09-04T17:49:53 02:00</time>
      </trkpt>
      <trkpt lat="42.58405" lon="2.05472">
        <ele>1795</ele>
        <time>2016-09-04T17:50:11 02:00</time>
      </trkpt>
      <trkpt lat="42.58401" lon="2.05507">
        <ele>1791</ele>
        <time>2016-09-04T17:50:36 02:00</time>
      </trkpt>
      <trkpt lat="42.58398" lon="2.05536">
        <ele>1791</ele>
        <time>2016-09-04T17:50:57 02:00</time>
      </trkpt>
      <trkpt lat="42.58388" lon="2.05552">
        <ele>1794</ele>
        <time>2016-09-04T17:51:16 02:00</time>
      </trkpt>
      <trkpt lat="42.58381" lon="2.0557">
        <ele>1796</ele>
        <time>2016-09-04T17:51:33 02:00</time>
      </trkpt>
      <trkpt lat="42.58371" lon="2.05594">
        <ele>1798</ele>
        <time>2016-09-04T17:54:23 02:00</time>
      </trkpt>
      <trkpt lat="42.5837" lon="2.05601">
        <ele>1798</ele>
        <time>2016-09-04T17:55:41 02:00</time>
      </trkpt>
      <trkpt lat="42.58373" lon="2.05629">
        <ele>1796</ele>
        <time>2016-09-04T17:56:06 02:00</time>
      </trkpt>
      <trkpt lat="42.58365" lon="2.05666">
        <ele>1798</ele>
        <time>2016-09-04T17:56:34 02:00</time>
      </trkpt>
      <trkpt lat="42.58356" lon="2.05692">
        <ele>1800</ele>
        <time>2016-09-04T17:56:56 02:00</time>
      </trkpt>
      <trkpt lat="42.58349" lon="2.05715">
        <ele>1803</ele>
        <time>2016-09-04T17:57:15 02:00</time>
      </trkpt>
      <trkpt lat="42.58349" lon="2.05748">
        <ele>1802</ele>
        <time>2016-09-04T17:57:36 02:00</time>
      </trkpt>
      <trkpt lat="42.5835" lon="2.05781">
        <ele>1801</ele>
        <time>2016-09-04T17:57:59 02:00</time>
      </trkpt>
      <trkpt lat="42.5835" lon="2.05818">
        <ele>1800</ele>
        <time>2016-09-04T17:58:25 02:00</time>
      </trkpt>
      <trkpt lat="42.58348" lon="2.05826">
        <ele>1800</ele>
        <time>2016-09-04T17:58:30 02:00</time>
      </trkpt>
      <trkpt lat="42.58346" lon="2.05849">
        <ele>1801</ele>
        <time>2016-09-04T17:58:47 02:00</time>
      </trkpt>
      <trkpt lat="42.58356" lon="2.05874">
        <ele>1794</ele>
        <time>2016-09-04T17:59:05 02:00</time>
      </trkpt>
      <trkpt lat="42.58357" lon="2.059">
        <ele>1793</ele>
        <time>2016-09-04T17:59:22 02:00</time>
      </trkpt>
      <trkpt lat="42.58358" lon="2.05914">
        <ele>1792</ele>
        <time>2016-09-04T17:59:28 02:00</time>
      </trkpt>
      <trkpt lat="42.58357" lon="2.05954">
        <ele>1791</ele>
        <time>2016-09-04T17:59:54 02:00</time>
      </trkpt>
      <trkpt lat="42.58354" lon="2.0597">
        <ele>1792</ele>
        <time>2016-09-04T18:00:02 02:00</time>
      </trkpt>
      <trkpt lat="42.58355" lon="2.05986">
        <ele>1792</ele>
        <time>2016-09-04T18:00:16 02:00</time>
      </trkpt>
      <trkpt lat="42.58356" lon="2.06015">
        <ele>1791</ele>
        <time>2016-09-04T18:00:36 02:00</time>
      </trkpt>
      <trkpt lat="42.58358" lon="2.0603">
        <ele>1790</ele>
        <time>2016-09-04T18:00:42 02:00</time>
      </trkpt>
      <trkpt lat="42.58359" lon="2.06046">
        <ele>1790</ele>
        <time>2016-09-04T18:00:54 02:00</time>
      </trkpt>
      <trkpt lat="42.58352" lon="2.06085">
        <ele>1793</ele>
        <time>2016-09-04T18:01:22 02:00</time>
      </trkpt>
      <trkpt lat="42.58348" lon="2.06114">
        <ele>1796</ele>
        <time>2016-09-04T18:01:44 02:00</time>
      </trkpt>
      <trkpt lat="42.58344" lon="2.06138">
        <ele>1799</ele>
        <time>2016-09-04T18:02:02 02:00</time>
      </trkpt>
      <trkpt lat="42.58347" lon="2.0616">
        <ele>1800</ele>
        <time>2016-09-04T18:02:20 02:00</time>
      </trkpt>
      <trkpt lat="42.58351" lon="2.06181">
        <ele>1801</ele>
        <time>2016-09-04T18:02:40 02:00</time>
      </trkpt>
      <trkpt lat="42.58356" lon="2.06199">
        <ele>1801</ele>
        <time>2016-09-04T18:02:53 02:00</time>
      </trkpt>
      <trkpt lat="42.58365" lon="2.06223">
        <ele>1801</ele>
        <time>2016-09-04T18:03:14 02:00</time>
      </trkpt>
      <trkpt lat="42.58374" lon="2.06243">
        <ele>1800</ele>
        <time>2016-09-04T18:03:31 02:00</time>
      </trkpt>
      <trkpt lat="42.58375" lon="2.06259">
        <ele>1802</ele>
        <time>2016-09-04T18:03:41 02:00</time>
      </trkpt>
      <trkpt lat="42.58365" lon="2.06292">
        <ele>1808</ele>
        <time>2016-09-04T18:04:05 02:00</time>
      </trkpt>
      <trkpt lat="42.58362" lon="2.0632">
        <ele>1812</ele>
        <time>2016-09-04T18:04:24 02:00</time>
      </trkpt>
      <trkpt lat="42.58364" lon="2.06347">
        <ele>1814</ele>
        <time>2016-09-04T18:04:43 02:00</time>
      </trkpt>
      <trkpt lat="42.58365" lon="2.06377">
        <ele>1817</ele>
        <time>2016-09-04T18:05:08 02:00</time>
      </trkpt>
      <trkpt lat="42.58367" lon="2.06408">
        <ele>1820</ele>
        <time>2016-09-04T18:05:30 02:00</time>
      </trkpt>
      <trkpt lat="42.58367" lon="2.0644">
        <ele>1823</ele>
        <time>2016-09-04T18:05:55 02:00</time>
      </trkpt>
      <trkpt lat="42.58366" lon="2.06465">
        <ele>1825</ele>
        <time>2016-09-04T18:06:16 02:00</time>
      </trkpt>
      <trkpt lat="42.5837" lon="2.06489">
        <ele>1825</ele>
        <time>2016-09-04T18:06:34 02:00</time>
      </trkpt>
      <trkpt lat="42.58374" lon="2.06508">
        <ele>1826</ele>
        <time>2016-09-04T18:06:47 02:00</time>
      </trkpt>
      <trkpt lat="42.58377" lon="2.06537">
        <ele>1827</ele>
        <time>2016-09-04T18:07:10 02:00</time>
      </trkpt>
      <trkpt lat="42.58378" lon="2.06546">
        <ele>1827</ele>
        <time>2016-09-04T18:07:15 02:00</time>
      </trkpt>
      <trkpt lat="42.58382" lon="2.06598">
        <ele>1829</ele>
        <time>2016-09-04T18:12:04 02:00</time>
      </trkpt>
      <trkpt lat="42.58387" lon="2.06645">
        <ele>1830</ele>
        <time>2016-09-04T18:12:30 02:00</time>
      </trkpt>
      <trkpt lat="42.58386" lon="2.06696">
        <ele>1833</ele>
        <time>2016-09-04T18:13:03 02:00</time>
      </trkpt>
      <trkpt lat="42.5839" lon="2.06705">
        <ele>1832</ele>
        <time>2016-09-04T18:13:08 02:00</time>
      </trkpt>
      <trkpt lat="42.58394" lon="2.06736">
        <ele>1833</ele>
        <time>2016-09-04T18:13:26 02:00</time>
      </trkpt>
      <trkpt lat="42.58395" lon="2.06757">
        <ele>1834</ele>
        <time>2016-09-04T18:13:38 02:00</time>
      </trkpt>
      <trkpt lat="42.58392" lon="2.06776">
        <ele>1834</ele>
        <time>2016-09-04T18:13:52 02:00</time>
      </trkpt>
      <trkpt lat="42.58389" lon="2.0679">
        <ele>1835</ele>
        <time>2016-09-04T18:14:01 02:00</time>
      </trkpt>
    </trkseg>
  </trk>
  <trk>
    <name><![CDATA[Le Refuge du Coll del Torn]]></name>
    <trkseg>
      <trkpt lat="42.58526" lon="2.11876">
        <ele>1493</ele>
        <time>2020-07-03T09:28:51 02:00</time>
      </trkpt>
      <trkpt lat="42.58486" lon="2.11863">
        <ele>1497</ele>
        <time>2020-07-03T09:28:56 02:00</time>
      </trkpt>
      <trkpt lat="42.58438" lon="2.11801">
        <ele>1500</ele>
        <time>2020-07-03T09:29:01 02:00</time>
      </trkpt>
      <trkpt lat="42.58389" lon="2.11743">
        <ele>1500</ele>
        <time>2020-07-03T09:29:06 02:00</time>
      </trkpt>
      <trkpt lat="42.58356" lon="2.11711">
        <ele>1501</ele>
        <time>2020-07-03T09:29:11 02:00</time>
      </trkpt>
      <trkpt lat="42.58309" lon="2.11682">
        <ele>1503</ele>
        <time>2020-07-03T09:29:16 02:00</time>
      </trkpt>
      <trkpt lat="42.58223" lon="2.11591">
        <ele>1503</ele>
        <time>2020-07-03T09:29:21 02:00</time>
      </trkpt>
      <trkpt lat="42.58121" lon="2.11493">
        <ele>1504</ele>
        <time>2020-07-03T09:29:26 02:00</time>
      </trkpt>
      <trkpt lat="42.58026" lon="2.1139">
        <ele>1510</ele>
        <time>2020-07-03T09:29:31 02:00</time>
      </trkpt>
      <trkpt lat="42.57972" lon="2.11358">
        <ele>1510</ele>
        <time>2020-07-03T09:29:36 02:00</time>
      </trkpt>
      <trkpt lat="42.57885" lon="2.11351">
        <ele>1510</ele>
        <time>2020-07-03T09:29:41 02:00</time>
      </trkpt>
      <trkpt lat="42.57838" lon="2.11347">
        <ele>1510</ele>
        <time>2020-07-03T09:29:46 02:00</time>
      </trkpt>
      <trkpt lat="42.5776" lon="2.11338">
        <ele>1510</ele>
        <time>2020-07-03T09:29:51 02:00</time>
      </trkpt>
      <trkpt lat="42.57724" lon="2.11316">
        <ele>1510</ele>
        <time>2020-07-03T09:29:56 02:00</time>
      </trkpt>
      <trkpt lat="42.57675" lon="2.11321">
        <ele>1512</ele>
        <time>2020-07-03T09:30:01 02:00</time>
      </trkpt>
      <trkpt lat="42.57627" lon="2.11296">
        <ele>1515</ele>
        <time>2020-07-03T09:30:06 02:00</time>
      </trkpt>
      <trkpt lat="42.57569" lon="2.1125">
        <ele>1519</ele>
        <time>2020-07-03T09:30:11 02:00</time>
      </trkpt>
      <trkpt lat="42.57517" lon="2.11278">
        <ele>1535</ele>
        <time>2020-07-03T09:30:16 02:00</time>
      </trkpt>
      <trkpt lat="42.57512" lon="2.11298">
        <ele>1540</ele>
        <time>2020-07-03T09:30:21 02:00</time>
      </trkpt>
      <trkpt lat="42.57487" lon="2.11283">
        <ele>1540</ele>
        <time>2020-07-03T09:30:26 02:00</time>
      </trkpt>
      <trkpt lat="42.57464" lon="2.11271">
        <ele>1541</ele>
        <time>2020-07-03T09:30:31 02:00</time>
      </trkpt>
      <trkpt lat="42.57446" lon="2.11283">
        <ele>1544</ele>
        <time>2020-07-03T09:30:36 02:00</time>
      </trkpt>
      <trkpt lat="42.57459" lon="2.11294">
        <ele>1545</ele>
        <time>2020-07-03T09:30:41 02:00</time>
      </trkpt>
      <trkpt lat="42.57395" lon="2.11302">
        <ele>1547</ele>
        <time>2020-07-03T09:30:46 02:00</time>
      </trkpt>
      <trkpt lat="42.57398" lon="2.11315">
        <ele>1549</ele>
        <time>2020-07-03T09:30:51 02:00</time>
      </trkpt>
      <trkpt lat="42.57449" lon="2.11328">
        <ele>1552</ele>
        <time>2020-07-03T09:30:56 02:00</time>
      </trkpt>
      <trkpt lat="42.57473" lon="2.11353">
        <ele>1553</ele>
        <time>2020-07-03T09:31:01 02:00</time>
      </trkpt>
      <trkpt lat="42.575" lon="2.11426">
        <ele>1559</ele>
        <time>2020-07-03T09:31:06 02:00</time>
      </trkpt>
      <trkpt lat="42.57548" lon="2.11493">
        <ele>1568</ele>
        <time>2020-07-03T09:31:11 02:00</time>
      </trkpt>
      <trkpt lat="42.5759" lon="2.11534">
        <ele>1571</ele>
        <time>2020-07-03T09:31:16 02:00</time>
      </trkpt>
      <trkpt lat="42.57619" lon="2.11567">
        <ele>1576</ele>
        <time>2020-07-03T09:31:21 02:00</time>
      </trkpt>
      <trkpt lat="42.57654" lon="2.11611">
        <ele>1580</ele>
        <time>2020-07-03T09:31:26 02:00</time>
      </trkpt>
      <trkpt lat="42.57684" lon="2.11648">
        <ele>1581</ele>
        <time>2020-07-03T09:31:31 02:00</time>
      </trkpt>
      <trkpt lat="42.57699" lon="2.11685">
        <ele>1585</ele>
        <time>2020-07-03T09:31:36 02:00</time>
      </trkpt>
      <trkpt lat="42.57725" lon="2.11776">
        <ele>1587</ele>
        <time>2020-07-03T09:31:41 02:00</time>
      </trkpt>
      <trkpt lat="42.57726" lon="2.11815">
        <ele>1591</ele>
        <time>2020-07-03T09:31:46 02:00</time>
      </trkpt>
      <trkpt lat="42.57714" lon="2.11873">
        <ele>1601</ele>
        <time>2020-07-03T09:31:51 02:00</time>
      </trkpt>
      <trkpt lat="42.57721" lon="2.119">
        <ele>1606</ele>
        <time>2020-07-03T09:31:56 02:00</time>
      </trkpt>
      <trkpt lat="42.57763" lon="2.11922">
        <ele>1605</ele>
        <time>2020-07-03T09:32:01 02:00</time>
      </trkpt>
      <trkpt lat="42.57797" lon="2.11979">
        <ele>1609</ele>
        <time>2020-07-03T09:32:06 02:00</time>
      </trkpt>
      <trkpt lat="42.57816" lon="2.12028">
        <ele>1613</ele>
        <time>2020-07-03T09:32:11 02:00</time>
      </trkpt>
      <trkpt lat="42.57833" lon="2.12067">
        <ele>1619</ele>
        <time>2020-07-03T09:32:16 02:00</time>
      </trkpt>
      <trkpt lat="42.57863" lon="2.12093">
        <ele>1622</ele>
        <time>2020-07-03T09:32:21 02:00</time>
      </trkpt>
      <trkpt lat="42.57849" lon="2.12097">
        <ele>1625</ele>
        <time>2020-07-03T09:32:26 02:00</time>
      </trkpt>
      <trkpt lat="42.57835" lon="2.12088">
        <ele>1624</ele>
        <time>2020-07-03T09:32:31 02:00</time>
      </trkpt>
      <trkpt lat="42.57807" lon="2.12082">
        <ele>1626</ele>
        <time>2020-07-03T09:32:36 02:00</time>
      </trkpt>
      <trkpt lat="42.57719" lon="2.12037">
        <ele>1637</ele>
        <time>2020-07-03T09:32:41 02:00</time>
      </trkpt>
      <trkpt lat="42.57672" lon="2.12042">
        <ele>1646</ele>
        <time>2020-07-03T09:32:46 02:00</time>
      </trkpt>
      <trkpt lat="42.57648" lon="2.12057">
        <ele>1652</ele>
        <time>2020-07-03T09:32:51 02:00</time>
      </trkpt>
      <trkpt lat="42.57614" lon="2.11998">
        <ele>1651</ele>
        <time>2020-07-03T09:32:56 02:00</time>
      </trkpt>
      <trkpt lat="42.57586" lon="2.11973">
        <ele>1657</ele>
        <time>2020-07-03T09:33:01 02:00</time>
      </trkpt>
      <trkpt lat="42.57552" lon="2.11955">
        <ele>1663</ele>
        <time>2020-07-03T09:33:06 02:00</time>
      </trkpt>
      <trkpt lat="42.57535" lon="2.11907">
        <ele>1664</ele>
        <time>2020-07-03T09:33:11 02:00</time>
      </trkpt>
      <trkpt lat="42.57476" lon="2.11861">
        <ele>1671</ele>
        <time>2020-07-03T09:33:16 02:00</time>
      </trkpt>
      <trkpt lat="42.57463" lon="2.11864">
        <ele>1674</ele>
        <time>2020-07-03T09:33:21 02:00</time>
      </trkpt>
      <trkpt lat="42.57495" lon="2.11928">
        <ele>1676</ele>
        <time>2020-07-03T09:33:26 02:00</time>
      </trkpt>
      <trkpt lat="42.57527" lon="2.12045">
        <ele>1687</ele>
        <time>2020-07-03T09:33:31 02:00</time>
      </trkpt>
      <trkpt lat="42.57585" lon="2.12307">
        <ele>1740</ele>
        <time>2020-07-03T09:33:36 02:00</time>
      </trkpt>
      <trkpt lat="42.57623" lon="2.12401">
        <ele>1763</ele>
        <time>2020-07-03T09:33:41 02:00</time>
      </trkpt>
      <trkpt lat="42.5763" lon="2.12558">
        <ele>1791</ele>
        <time>2020-07-03T09:33:46 02:00</time>
      </trkpt>
      <trkpt lat="42.57568" lon="2.12669">
        <ele>1810</ele>
        <time>2020-07-03T09:33:51 02:00</time>
      </trkpt>
      <trkpt lat="42.57507" lon="2.12759">
        <ele>1830</ele>
        <time>2020-07-03T09:33:56 02:00</time>
      </trkpt>
      <trkpt lat="42.57447" lon="2.12852">
        <ele>1852</ele>
        <time>2020-07-03T09:34:01 02:00</time>
      </trkpt>
      <trkpt lat="42.57447" lon="2.12893">
        <ele>1852</ele>
        <time>2020-07-03T09:34:06 02:00</time>
      </trkpt>
      <trkpt lat="42.57422" lon="2.12962">
        <ele>1860</ele>
        <time>2020-07-03T09:34:11 02:00</time>
      </trkpt>
      <trkpt lat="42.57414" lon="2.13021">
        <ele>1864</ele>
        <time>2020-07-03T09:34:16 02:00</time>
      </trkpt>
      <trkpt lat="42.57417" lon="2.1308">
        <ele>1867</ele>
        <time>2020-07-03T09:34:21 02:00</time>
      </trkpt>
      <trkpt lat="42.5743" lon="2.13144">
        <ele>1871</ele>
        <time>2020-07-03T09:34:26 02:00</time>
      </trkpt>
      <trkpt lat="42.57441" lon="2.13177">
        <ele>1873</ele>
        <time>2020-07-03T09:34:31 02:00</time>
      </trkpt>
      <trkpt lat="42.57467" lon="2.13165">
        <ele>1868</ele>
        <time>2020-07-03T09:34:36 02:00</time>
      </trkpt>
      <trkpt lat="42.57491" lon="2.13175">
        <ele>1867</ele>
        <time>2020-07-03T09:34:41 02:00</time>
      </trkpt>
      <trkpt lat="42.57512" lon="2.13156">
        <ele>1863</ele>
        <time>2020-07-03T09:34:46 02:00</time>
      </trkpt>
      <trkpt lat="42.57564" lon="2.13104">
        <ele>1856</ele>
        <time>2020-07-03T09:34:51 02:00</time>
      </trkpt>
      <trkpt lat="42.57591" lon="2.13082">
        <ele>1854</ele>
        <time>2020-07-03T09:34:56 02:00</time>
      </trkpt>
      <trkpt lat="42.57632" lon="2.1304">
        <ele>1851</ele>
        <time>2020-07-03T09:35:01 02:00</time>
      </trkpt>
      <trkpt lat="42.57706" lon="2.13039">
        <ele>1847</ele>
        <time>2020-07-03T09:35:06 02:00</time>
      </trkpt>
      <trkpt lat="42.57776" lon="2.13015">
        <ele>1844</ele>
        <time>2020-07-03T09:35:11 02:00</time>
      </trkpt>
      <trkpt lat="42.57842" lon="2.13032">
        <ele>1845</ele>
        <time>2020-07-03T09:35:16 02:00</time>
      </trkpt>
      <trkpt lat="42.57943" lon="2.12966">
        <ele>1837</ele>
        <time>2020-07-03T09:35:21 02:00</time>
      </trkpt>
      <trkpt lat="42.58045" lon="2.12989">
        <ele>1842</ele>
        <time>2020-07-03T09:35:26 02:00</time>
      </trkpt>
      <trkpt lat="42.58067" lon="2.12991">
        <ele>1841</ele>
        <time>2020-07-03T09:35:31 02:00</time>
      </trkpt>
      <trkpt lat="42.58129" lon="2.13022">
        <ele>1843</ele>
        <time>2020-07-03T09:35:36 02:00</time>
      </trkpt>
      <trkpt lat="42.58178" lon="2.13063">
        <ele>1846</ele>
        <time>2020-07-03T09:35:41 02:00</time>
      </trkpt>
      <trkpt lat="42.58205" lon="2.1308">
        <ele>1846</ele>
        <time>2020-07-03T09:35:46 02:00</time>
      </trkpt>
      <trkpt lat="42.58259" lon="2.1312">
        <ele>1847</ele>
        <time>2020-07-03T09:35:51 02:00</time>
      </trkpt>
      <trkpt lat="42.58292" lon="2.13129">
        <ele>1845</ele>
        <time>2020-07-03T09:35:56 02:00</time>
      </trkpt>
      <trkpt lat="42.58362" lon="2.13176">
        <ele>1844</ele>
        <time>2020-07-03T09:36:01 02:00</time>
      </trkpt>
      <trkpt lat="42.58436" lon="2.13202">
        <ele>1842</ele>
        <time>2020-07-03T09:36:06 02:00</time>
      </trkpt>
      <trkpt lat="42.58491" lon="2.13236">
        <ele>1842</ele>
        <time>2020-07-03T09:36:11 02:00</time>
      </trkpt>
      <trkpt lat="42.58535" lon="2.13275">
        <ele>1841</ele>
        <time>2020-07-03T09:36:16 02:00</time>
      </trkpt>
      <trkpt lat="42.58589" lon="2.133">
        <ele>1839</ele>
        <time>2020-07-03T09:36:21 02:00</time>
      </trkpt>
      <trkpt lat="42.58653" lon="2.13309">
        <ele>1834</ele>
        <time>2020-07-03T09:36:26 02:00</time>
      </trkpt>
      <trkpt lat="42.58706" lon="2.13339">
        <ele>1832</ele>
        <time>2020-07-03T09:36:31 02:00</time>
      </trkpt>
      <trkpt lat="42.58793" lon="2.1341">
        <ele>1831</ele>
        <time>2020-07-03T09:36:36 02:00</time>
      </trkpt>
      <trkpt lat="42.58839" lon="2.13455">
        <ele>1830</ele>
        <time>2020-07-03T09:36:41 02:00</time>
      </trkpt>
      <trkpt lat="42.58866" lon="2.13459">
        <ele>1828</ele>
        <time>2020-07-03T09:36:46 02:00</time>
      </trkpt>
      <trkpt lat="42.58895" lon="2.13477">
        <ele>1825</ele>
        <time>2020-07-03T09:36:51 02:00</time>
      </trkpt>
      <trkpt lat="42.5896" lon="2.13547">
        <ele>1827</ele>
        <time>2020-07-03T09:36:56 02:00</time>
      </trkpt>
      <trkpt lat="42.59015" lon="2.13645">
        <ele>1827</ele>
        <time>2020-07-03T09:37:01 02:00</time>
      </trkpt>
      <trkpt lat="42.59047" lon="2.13677">
        <ele>1825</ele>
        <time>2020-07-03T09:37:06 02:00</time>
      </trkpt>
      <trkpt lat="42.59096" lon="2.13713">
        <ele>1821</ele>
        <time>2020-07-03T09:37:11 02:00</time>
      </trkpt>
      <trkpt lat="42.59185" lon="2.13792">
        <ele>1817</ele>
        <time>2020-07-03T09:37:16 02:00</time>
      </trkpt>
      <trkpt lat="42.59268" lon="2.13884">
        <ele>1810</ele>
        <time>2020-07-03T09:37:21 02:00</time>
      </trkpt>
      <trkpt lat="42.59317" lon="2.13964">
        <ele>1810</ele>
        <time>2020-07-03T09:37:26 02:00</time>
      </trkpt>
      <trkpt lat="42.59346" lon="2.13983">
        <ele>1810</ele>
        <time>2020-07-03T09:37:31 02:00</time>
      </trkpt>
      <trkpt lat="42.59392" lon="2.14004">
        <ele>1808</ele>
        <time>2020-07-03T09:37:36 02:00</time>
      </trkpt>
      <trkpt lat="42.5946" lon="2.14024">
        <ele>1808</ele>
        <time>2020-07-03T09:37:41 02:00</time>
      </trkpt>
      <trkpt lat="42.59506" lon="2.14013">
        <ele>1814</ele>
        <time>2020-07-03T09:37:46 02:00</time>
      </trkpt>
      <trkpt lat="42.59542" lon="2.13943">
        <ele>1817</ele>
        <time>2020-07-03T09:37:51 02:00</time>
      </trkpt>
      <trkpt lat="42.59592" lon="2.13882">
        <ele>1808</ele>
        <time>2020-07-03T09:37:56 02:00</time>
      </trkpt>
      <trkpt lat="42.59705" lon="2.13858">
        <ele>1795</ele>
        <time>2020-07-03T09:38:01 02:00</time>
      </trkpt>
      <trkpt lat="42.59726" lon="2.13912">
        <ele>1793</ele>
        <time>2020-07-03T09:38:06 02:00</time>
      </trkpt>
      <trkpt lat="42.59752" lon="2.13854">
        <ele>1788</ele>
        <time>2020-07-03T09:38:11 02:00</time>
      </trkpt>
      <trkpt lat="42.59761" lon="2.13788">
        <ele>1786</ele>
        <time>2020-07-03T09:38:16 02:00</time>
      </trkpt>
      <trkpt lat="42.59729" lon="2.13731">
        <ele>1780</ele>
        <time>2020-07-03T09:38:21 02:00</time>
      </trkpt>
      <trkpt lat="42.59724" lon="2.13699">
        <ele>1776</ele>
        <time>2020-07-03T09:38:26 02:00</time>
      </trkpt>
      <trkpt lat="42.5974" lon="2.13677">
        <ele>1774</ele>
        <time>2020-07-03T09:38:31 02:00</time>
      </trkpt>
      <trkpt lat="42.5976" lon="2.13685">
        <ele>1774</ele>
        <time>2020-07-03T09:38:36 02:00</time>
      </trkpt>
      <trkpt lat="42.59825" lon="2.13751">
        <ele>1768</ele>
        <time>2020-07-03T09:38:41 02:00</time>
      </trkpt>
      <trkpt lat="42.59857" lon="2.13764">
        <ele>1764</ele>
        <time>2020-07-03T09:38:46 02:00</time>
      </trkpt>
      <trkpt lat="42.59893" lon="2.13766">
        <ele>1760</ele>
        <time>2020-07-03T09:38:51 02:00</time>
      </trkpt>
      <trkpt lat="42.5991" lon="2.13734">
        <ele>1756</ele>
        <time>2020-07-03T09:38:56 02:00</time>
      </trkpt>
      <trkpt lat="42.59897" lon="2.1368">
        <ele>1753</ele>
        <time>2020-07-03T09:39:01 02:00</time>
      </trkpt>
      <trkpt lat="42.59908" lon="2.13665">
        <ele>1751</ele>
        <time>2020-07-03T09:39:06 02:00</time>
      </trkpt>
      <trkpt lat="42.59951" lon="2.13702">
        <ele>1750</ele>
        <time>2020-07-03T09:39:11 02:00</time>
      </trkpt>
      <trkpt lat="42.59959" lon="2.13728">
        <ele>1749</ele>
        <time>2020-07-03T09:39:16 02:00</time>
      </trkpt>
      <trkpt lat="42.59974" lon="2.13731">
        <ele>1747</ele>
        <time>2020-07-03T09:39:21 02:00</time>
      </trkpt>
      <trkpt lat="42.59984" lon="2.13766">
        <ele>1744</ele>
        <time>2020-07-03T09:39:26 02:00</time>
      </trkpt>
      <trkpt lat="42.60113" lon="2.13753">
        <ele>1724</ele>
        <time>2020-07-03T09:39:31 02:00</time>
      </trkpt>
      <trkpt lat="42.60203" lon="2.13745">
        <ele>1711</ele>
        <time>2020-07-03T09:39:36 02:00</time>
      </trkpt>
      <trkpt lat="42.60254" lon="2.1379">
        <ele>1707</ele>
        <time>2020-07-03T09:39:41 02:00</time>
      </trkpt>
      <trkpt lat="42.6026" lon="2.13798">
        <ele>1706</ele>
        <time>2020-07-03T09:39:46 02:00</time>
      </trkpt>
      <trkpt lat="42.60279" lon="2.13784">
        <ele>1704</ele>
        <time>2020-07-03T09:39:51 02:00</time>
      </trkpt>
      <trkpt lat="42.60296" lon="2.13768">
        <ele>1704</ele>
        <time>2020-07-03T09:39:56 02:00</time>
      </trkpt>
      <trkpt lat="42.60331" lon="2.13669">
        <ele>1698</ele>
        <time>2020-07-03T09:40:01 02:00</time>
      </trkpt>
      <trkpt lat="42.60349" lon="2.13622">
        <ele>1692</ele>
        <time>2020-07-03T09:40:06 02:00</time>
      </trkpt>
      <trkpt lat="42.60358" lon="2.13607">
        <ele>1687</ele>
        <time>2020-07-03T09:40:11 02:00</time>
      </trkpt>
      <trkpt lat="42.60373" lon="2.13607">
        <ele>1686</ele>
        <time>2020-07-03T09:40:16 02:00</time>
      </trkpt>
      <trkpt lat="42.60394" lon="2.13603">
        <ele>1683</ele>
        <time>2020-07-03T09:40:21 02:00</time>
      </trkpt>
      <trkpt lat="42.60422" lon="2.13607">
        <ele>1681</ele>
        <time>2020-07-03T09:40:26 02:00</time>
      </trkpt>
      <trkpt lat="42.6046" lon="2.13597">
        <ele>1676</ele>
        <time>2020-07-03T09:40:31 02:00</time>
      </trkpt>
      <trkpt lat="42.60499" lon="2.13606">
        <ele>1672</ele>
        <time>2020-07-03T09:40:36 02:00</time>
      </trkpt>
      <trkpt lat="42.60506" lon="2.13609">
        <ele>1673</ele>
        <time>2020-07-03T09:40:41 02:00</time>
      </trkpt>
      <trkpt lat="42.60512" lon="2.13599">
        <ele>1671</ele>
        <time>2020-07-03T09:40:46 02:00</time>
      </trkpt>
      <trkpt lat="42.60471" lon="2.1355">
        <ele>1661</ele>
        <time>2020-07-03T09:40:51 02:00</time>
      </trkpt>
      <trkpt lat="42.60453" lon="2.13541">
        <ele>1659</ele>
        <time>2020-07-03T09:40:56 02:00</time>
      </trkpt>
      <trkpt lat="42.60432" lon="2.13539">
        <ele>1661</ele>
        <time>2020-07-03T09:41:01 02:00</time>
      </trkpt>
      <trkpt lat="42.60428" lon="2.13528">
        <ele>1660</ele>
        <time>2020-07-03T09:41:06 02:00</time>
      </trkpt>
      <trkpt lat="42.60436" lon="2.13522">
        <ele>1657</ele>
        <time>2020-07-03T09:41:11 02:00</time>
      </trkpt>
      <trkpt lat="42.60468" lon="2.13511">
        <ele>1652</ele>
        <time>2020-07-03T09:41:16 02:00</time>
      </trkpt>
      <trkpt lat="42.60519" lon="2.13519">
        <ele>1649</ele>
        <time>2020-07-03T09:41:21 02:00</time>
      </trkpt>
      <trkpt lat="42.60671" lon="2.13464">
        <ele>1632</ele>
        <time>2020-07-03T09:41:26 02:00</time>
      </trkpt>
      <trkpt lat="42.60758" lon="2.13457">
        <ele>1624</ele>
        <time>2020-07-03T09:41:31 02:00</time>
      </trkpt>
      <trkpt lat="42.60698" lon="2.13433">
        <ele>1619</ele>
        <time>2020-07-03T09:41:36 02:00</time>
      </trkpt>
      <trkpt lat="42.60653" lon="2.13421">
        <ele>1615</ele>
        <time>2020-07-03T09:41:41 02:00</time>
      </trkpt>
      <trkpt lat="42.60659" lon="2.1341">
        <ele>1612</ele>
        <time>2020-07-03T09:41:46 02:00</time>
      </trkpt>
      <trkpt lat="42.60723" lon="2.13391">
        <ele>1604</ele>
        <time>2020-07-03T09:41:51 02:00</time>
      </trkpt>
      <trkpt lat="42.60789" lon="2.13377">
        <ele>1596</ele>
        <time>2020-07-03T09:41:56 02:00</time>
      </trkpt>
      <trkpt lat="42.60819" lon="2.13398">
        <ele>1591</ele>
        <time>2020-07-03T09:42:01 02:00</time>
      </trkpt>
      <trkpt lat="42.60841" lon="2.13451">
        <ele>1591</ele>
        <time>2020-07-03T09:42:06 02:00</time>
      </trkpt>
      <trkpt lat="42.60853" lon="2.1345">
        <ele>1586</ele>
        <time>2020-07-03T09:42:11 02:00</time>
      </trkpt>
      <trkpt lat="42.60847" lon="2.13422">
        <ele>1582</ele>
        <time>2020-07-03T09:42:16 02:00</time>
      </trkpt>
      <trkpt lat="42.60827" lon="2.13341">
        <ele>1578</ele>
        <time>2020-07-03T09:42:21 02:00</time>
      </trkpt>
      <trkpt lat="42.60805" lon="2.13293">
        <ele>1571</ele>
        <time>2020-07-03T09:42:26 02:00</time>
      </trkpt>
      <trkpt lat="42.60765" lon="2.13272">
        <ele>1567</ele>
        <time>2020-07-03T09:42:31 02:00</time>
      </trkpt>
      <trkpt lat="42.60742" lon="2.1327">
        <ele>1565</ele>
        <time>2020-07-03T09:42:36 02:00</time>
      </trkpt>
      <trkpt lat="42.60732" lon="2.13275">
        <ele>1566</ele>
        <time>2020-07-03T09:42:41 02:00</time>
      </trkpt>
      <trkpt lat="42.60721" lon="2.13284">
        <ele>1567</ele>
        <time>2020-07-03T09:42:46 02:00</time>
      </trkpt>
      <trkpt lat="42.60716" lon="2.13277">
        <ele>1563</ele>
        <time>2020-07-03T09:42:51 02:00</time>
      </trkpt>
      <trkpt lat="42.6072" lon="2.13263">
        <ele>1559</ele>
        <time>2020-07-03T09:42:56 02:00</time>
      </trkpt>
      <trkpt lat="42.60816" lon="2.13236">
        <ele>1549</ele>
        <time>2020-07-03T09:43:01 02:00</time>
      </trkpt>
      <trkpt lat="42.60841" lon="2.13245">
        <ele>1546</ele>
        <time>2020-07-03T09:43:06 02:00</time>
      </trkpt>
      <trkpt lat="42.60848" lon="2.13238">
        <ele>1541</ele>
        <time>2020-07-03T09:43:11 02:00</time>
      </trkpt>
      <trkpt lat="42.60794" lon="2.13195">
        <ele>1536</ele>
        <time>2020-07-03T09:43:16 02:00</time>
      </trkpt>
      <trkpt lat="42.60751" lon="2.13185">
        <ele>1532</ele>
        <time>2020-07-03T09:43:21 02:00</time>
      </trkpt>
      <trkpt lat="42.60731" lon="2.13182">
        <ele>1529</ele>
        <time>2020-07-03T09:43:26 02:00</time>
      </trkpt>
      <trkpt lat="42.60693" lon="2.1319">
        <ele>1528</ele>
        <time>2020-07-03T09:43:31 02:00</time>
      </trkpt>
      <trkpt lat="42.60639" lon="2.13191">
        <ele>1521</ele>
        <time>2020-07-03T09:43:36 02:00</time>
      </trkpt>
      <trkpt lat="42.60611" lon="2.13194">
        <ele>1517</ele>
        <time>2020-07-03T09:43:41 02:00</time>
      </trkpt>
      <trkpt lat="42.60579" lon="2.13195">
        <ele>1513</ele>
        <time>2020-07-03T09:43:46 02:00</time>
      </trkpt>
      <trkpt lat="42.60549" lon="2.13191">
        <ele>1508</ele>
        <time>2020-07-03T09:43:51 02:00</time>
      </trkpt>
      <trkpt lat="42.60496" lon="2.1317">
        <ele>1503</ele>
        <time>2020-07-03T09:43:56 02:00</time>
      </trkpt>
      <trkpt lat="42.60473" lon="2.1314">
        <ele>1497</ele>
        <time>2020-07-03T09:44:01 02:00</time>
      </trkpt>
      <trkpt lat="42.6045" lon="2.13091">
        <ele>1495</ele>
        <time>2020-07-03T09:44:06 02:00</time>
      </trkpt>
      <trkpt lat="42.60418" lon="2.1305">
        <ele>1491</ele>
        <time>2020-07-03T09:44:11 02:00</time>
      </trkpt>
      <trkpt lat="42.60381" lon="2.13013">
        <ele>1489</ele>
        <time>2020-07-03T09:44:16 02:00</time>
      </trkpt>
      <trkpt lat="42.60342" lon="2.12994">
        <ele>1491</ele>
        <time>2020-07-03T09:44:21 02:00</time>
      </trkpt>
      <trkpt lat="42.60283" lon="2.12949">
        <ele>1492</ele>
        <time>2020-07-03T09:44:26 02:00</time>
      </trkpt>
      <trkpt lat="42.60195" lon="2.12891">
        <ele>1501</ele>
        <time>2020-07-03T09:44:31 02:00</time>
      </trkpt>
      <trkpt lat="42.60094" lon="2.12854">
        <ele>1507</ele>
        <time>2020-07-03T09:44:36 02:00</time>
      </trkpt>
      <trkpt lat="42.59997" lon="2.12816">
        <ele>1507</ele>
        <time>2020-07-03T09:44:41 02:00</time>
      </trkpt>
      <trkpt lat="42.59946" lon="2.1281">
        <ele>1508</ele>
        <time>2020-07-03T09:44:46 02:00</time>
      </trkpt>
      <trkpt lat="42.59888" lon="2.12796">
        <ele>1510</ele>
        <time>2020-07-03T09:44:51 02:00</time>
      </trkpt>
      <trkpt lat="42.59854" lon="2.12783">
        <ele>1513</ele>
        <time>2020-07-03T09:44:56 02:00</time>
      </trkpt>
      <trkpt lat="42.59814" lon="2.12759">
        <ele>1512</ele>
        <time>2020-07-03T09:45:01 02:00</time>
      </trkpt>
      <trkpt lat="42.59743" lon="2.12687">
        <ele>1501</ele>
        <time>2020-07-03T09:45:06 02:00</time>
      </trkpt>
      <trkpt lat="42.59721" lon="2.12656">
        <ele>1498</ele>
        <time>2020-07-03T09:45:11 02:00</time>
      </trkpt>
      <trkpt lat="42.59655" lon="2.12581">
        <ele>1494</ele>
        <time>2020-07-03T09:45:16 02:00</time>
      </trkpt>
      <trkpt lat="42.59615" lon="2.1255">
        <ele>1493</ele>
        <time>2020-07-03T09:45:21 02:00</time>
      </trkpt>
      <trkpt lat="42.59561" lon="2.12523">
        <ele>1493</ele>
        <time>2020-07-03T09:45:26 02:00</time>
      </trkpt>
      <trkpt lat="42.59505" lon="2.12513">
        <ele>1494</ele>
        <time>2020-07-03T09:45:31 02:00</time>
      </trkpt>
      <trkpt lat="42.5944" lon="2.12483">
        <ele>1490</ele>
        <time>2020-07-03T09:45:36 02:00</time>
      </trkpt>
      <trkpt lat="42.59391" lon="2.12429">
        <ele>1487</ele>
        <time>2020-07-03T09:45:41 02:00</time>
      </trkpt>
      <trkpt lat="42.59348" lon="2.12399">
        <ele>1484</ele>
        <time>2020-07-03T09:45:46 02:00</time>
      </trkpt>
      <trkpt lat="42.59308" lon="2.1238">
        <ele>1483</ele>
        <time>2020-07-03T09:45:51 02:00</time>
      </trkpt>
      <trkpt lat="42.59265" lon="2.12363">
        <ele>1482</ele>
        <time>2020-07-03T09:45:56 02:00</time>
      </trkpt>
      <trkpt lat="42.59247" lon="2.12334">
        <ele>1479</ele>
        <time>2020-07-03T09:46:01 02:00</time>
      </trkpt>
      <trkpt lat="42.59258" lon="2.12299">
        <ele>1480</ele>
        <time>2020-07-03T09:46:06 02:00</time>
      </trkpt>
      <trkpt lat="42.59275" lon="2.12262">
        <ele>1481</ele>
        <time>2020-07-03T09:46:11 02:00</time>
      </trkpt>
      <trkpt lat="42.59208" lon="2.12236">
        <ele>1481</ele>
        <time>2020-07-03T09:46:16 02:00</time>
      </trkpt>
      <trkpt lat="42.59188" lon="2.12211">
        <ele>1481</ele>
        <time>2020-07-03T09:46:21 02:00</time>
      </trkpt>
      <trkpt lat="42.59147" lon="2.12108">
        <ele>1483</ele>
        <time>2020-07-03T09:46:26 02:00</time>
      </trkpt>
      <trkpt lat="42.59117" lon="2.12103">
        <ele>1481</ele>
        <time>2020-07-03T09:46:31 02:00</time>
      </trkpt>
      <trkpt lat="42.59096" lon="2.12071">
        <ele>1483</ele>
        <time>2020-07-03T09:46:36 02:00</time>
      </trkpt>
      <trkpt lat="42.59073" lon="2.12065">
        <ele>1482</ele>
        <time>2020-07-03T09:46:41 02:00</time>
      </trkpt>
      <trkpt lat="42.58974" lon="2.12071">
        <ele>1483</ele>
        <time>2020-07-03T09:46:46 02:00</time>
      </trkpt>
      <trkpt lat="42.58896" lon="2.11959">
        <ele>1487</ele>
        <time>2020-07-03T09:46:51 02:00</time>
      </trkpt>
      <trkpt lat="42.58781" lon="2.11891">
        <ele>1490</ele>
        <time>2020-07-03T09:46:56 02:00</time>
      </trkpt>
      <trkpt lat="42.58755" lon="2.11873">
        <ele>1490</ele>
        <time>2020-07-03T09:47:01 02:00</time>
      </trkpt>
      <trkpt lat="42.58737" lon="2.1187">
        <ele>1491</ele>
        <time>2020-07-03T09:47:06 02:00</time>
      </trkpt>
      <trkpt lat="42.58717" lon="2.11841">
        <ele>1494</ele>
        <time>2020-07-03T09:47:11 02:00</time>
      </trkpt>
      <trkpt lat="42.58698" lon="2.11852">
        <ele>1496</ele>
        <time>2020-07-03T09:47:16 02:00</time>
      </trkpt>
      <trkpt lat="42.587" lon="2.11867">
        <ele>1494</ele>
        <time>2020-07-03T09:47:21 02:00</time>
      </trkpt>
      <trkpt lat="42.58677" lon="2.11903">
        <ele>1493</ele>
        <time>2020-07-03T09:47:26 02:00</time>
      </trkpt>
      <trkpt lat="42.58655" lon="2.11905">
        <ele>1492</ele>
        <time>2020-07-03T09:47:31 02:00</time>
      </trkpt>
      <trkpt lat="42.58617" lon="2.11875">
        <ele>1492</ele>
        <time>2020-07-03T09:47:36 02:00</time>
      </trkpt>
      <trkpt lat="42.58574" lon="2.11868">
        <ele>1490</ele>
        <time>2020-07-03T09:47:41 02:00</time>
      </trkpt>
      <trkpt lat="42.58526" lon="2.11884">
        <ele>1493</ele>
        <time>2020-07-03T09:47:46 02:00</time>
      </trkpt>
      <trkpt lat="42.58522" lon="2.11875">
        <ele>1494</ele>
        <time>2020-07-03T09:47:51 02:00</time>
      </trkpt>
    </trkseg>
  </trk>
</gpx>